Data Trawler - Search Deployments

NCMI Information and Data Centre  »  Applications  »  Data Trawler
Please login if you have access to particular applications.
Username:
Password:

Search for deployments by survey, gear or within comments.

Deployment count for each survey, component or action is shown in ().

Surveys(s)
Deployment Type(s)
Gear(s)
Search for - within subject, event identifier, comments etc.(case insensitive)
Highlight matches

Deployments by start time:- Click on column header to sort. Use link on 'Deployment' to see full details. Use the CSV button at the bottom to export data (tab delimited).

SurveyDeployment OperationStationCastGearProject Start and end timesStart LocationEnd LocationDepthDescription
IN2015_C02 [details] Underway System [details]   Altimeter-163,Autosal Salinometer,Burket Flow meter,Burket Flow meter,CSIRO Hobart pCO2,CSIRO Hobart pCO2,CSIRO Hobart pCO2,CSIRO Hobart pCO2,CSIRO Hobart pCO2,CSIRO Hobart pCO2,CSIRO Hobart pCO2,CSIRO Hobart pCO2,CSIRO Hobart pCO2,CSIRO Hobart pCO2,CSIRO air sampling inlet,CSIRO air sampling inlet,Chelsea Tech Fluorometer,Gyrocompass,Humidity Sensor-HMT333,Humidity Sensor-HMT333,Humidity Sensor-HMT333,Humidity Sensor-HMT333,IMOS Port Pyranometer-SN 29125F3,IMOS Port Radiometer-SN 29140F3,IMOS Stbd Pyranometer-SN 29125F3,IMOS Stbd Radiometer-SN 29140F3,IMOS wind monitor,IMOS wind monitor,Kobold MIK-C Flow meter,Kongsberg Maritime Skipper DL850 doppler log,Kongsberg Maritime Skipper DL850 doppler log,Kongsberg Maritime Skipper DL850 doppler log,Kongsberg Maritime Skipper DL850 doppler log,Kongsberg Maritime Skipper DL850 doppler log,Kongsberg Maritime Skipper DL850 doppler log,LI-COR LI-190 Quantum Sensor,LI-COR LI-190 Quantum Sensor,Multiangle Absorption Photometer (MAAP),Multiangle Absorption Photometer (MAAP),Ozone Monitor RVT1,Ozone Monitor RVT1,Ozone Monitor RVT2,Ozone Monitor RVT2,Picarro Greenhouse Gas Spectrometer CO2,CH4,H2o,Picarro Greenhouse Gas Spectrometer CO2,CH4,H2o,Picarro Greenhouse Gas Spectrometer CO2,CH4,H2o,Port drop keel sensor,RM Young 05106 wind monitor-SN 82705,RM Young Rain Gauge,RM Young Wind Sensor Type 05107,RM Young Wind Sensor Type 05107,RM Young Wind Sensor Type 05107,RM Young Wind Sensor Type 05107,RM Young Wind Sensor Type 05108,RM Young Wind Sensor Type 05108,RM Young Wind Sensor Type 05108,RM Young Wind Sensor Type 05108,Remote Temperature (T) - SN 671,Seapath 330+,Seapath 330+,Seapath 330+,Simrad EK60 multi-frequency split-beam echosounder,Starboard drop keel sensor,ThermoSalinoGraph (TSG)-SS-SN 1777,Vaisala Ship's Barometer PTB330 2437 2015-11-29 23:30 2015-12-21 23:38 -34.7171 135.8700 -32.0508 115.7440
IN2015_C02 [details] CTD Cast / Hydrology [details] 1   Cast 1 Autosal Salinometer,CTD 20 - SN 0552,Conductivity CTD 20 - SN 3868,Fluorometer-CTD20-Chelsea-06-5941-001,Licor - CTD 24 - SN 70111,Oxygen CTD 20-SBE 43-SN 1794,Pressure CTD 20,SCRIPPS Automated Photometric Oxygen System,SEAL AutoAnalyzer 3 HR,SEAL AutoAnalyzer 3 HR,SEAL AutoAnalyzer 3 HR,SEAL AutoAnalyzer 3 HR,SEAL AutoAnalyzer 3 HR,Temperature CTD 20 - SN 4722 2437 2015-11-30 09:03 2015-11-30 09:21 -35.8398 136.4532 -35.8413 136.4527 79
IN2015_C02 [details] Catch [details] 2   VNDUA Bongo net 2437 2015-11-30 10:08 -35.8450 136.4500 Area: Transect6-100m
IN2015_C02 [details] Catch [details] 3   VNDUA Bongo net 2437 2015-11-30 10:28 -35.8465 136.4510 Area: Transect6-100m
IN2015_C02 [details] Catch [details] 4   VN335 Bongo net 2437 2015-11-30 10:41 -35.8478 136.4520 Area: Transect6-100m
IN2015_C02 [details] Catch [details] 7   EZ Net 1 2437 2015-11-30 11:43 2015-11-30 11:52 -35.8584 136.4500 -35.8651 136.4460 Area: Transect6-100m
IN2015_C02 [details] Catch [details] 8   EZ Net 2 2437 2015-11-30 11:54 2015-11-30 12:03 -35.8666 136.4460 -35.8733 136.4420 Area: Transect6-100m
IN2015_C02 [details] Catch [details] 9   EZ Net 3 2437 2015-11-30 12:03 2015-11-30 12:14 -35.8733 136.4420 -35.8813 136.4380 Area: Transect6-100m
IN2015_C02 [details] Catch [details] 10   EZ Net 4 2437 2015-11-30 12:16 2015-11-30 12:25 -35.8829 136.4370 -35.8897 136.4340 Area: Transect6-100m
IN2015_C02 [details] Catch [details] 11   EZ Net 5 2437 2015-11-30 12:26 2015-11-30 12:31 -35.8904 136.4340 -35.8942 136.4320 Area: Transect6-100m
IN2015_C02 [details] ADCP Data [details]   Teledyne RDI ADCP 150 kHz 2437 2015-11-30 12:50 2015-12-19 18:13 -34.7619 136.2304 -35.1681 123.7985 415.6
IN2015_C02 [details] Catch [details] 13   Surface Net 2437 2015-11-30 13:09 2015-11-30 13:19 -35.9221 136.4170 -35.9296 136.4130 Area: Transect6-100m
IN2015_C02 [details] Catch [details] 14   Surface Net 2437 2015-11-30 13:24 2015-11-30 13:34 -35.9333 136.4110 -35.9403 136.4070 Area: Transect6-100m
IN2015_C02 [details] Catch [details] 15   Surface Net 2437 2015-11-30 13:37 2015-11-30 13:47 -35.9424 136.4050 -35.9492 136.4010 Area: Transect6-100m
IN2015_C02 [details] CTD Cast / Hydrology [details] 2   Cast 2 Autosal Salinometer,CTD 20 - SN 0552,Conductivity CTD 20 - SN 3868,Fluorometer-CTD20-Chelsea-06-5941-001,Licor - CTD 24 - SN 70111,Oxygen CTD 20-SBE 43-SN 1794,Pressure CTD 20,SCRIPPS Automated Photometric Oxygen System,SEAL AutoAnalyzer 3 HR,SEAL AutoAnalyzer 3 HR,SEAL AutoAnalyzer 3 HR,SEAL AutoAnalyzer 3 HR,SEAL AutoAnalyzer 3 HR,Temperature CTD 20 - SN 4722 2437 2015-11-30 14:58 2015-11-30 15:13 -36.0428 136.3361 -36.0430 136.3365 83
IN2015_C02 [details] CTD Cast / Hydrology [details] 3   Cast 3 Autosal Salinometer,CTD 20 - SN 0552,Conductivity CTD 20 - SN 3868,Fluorometer-CTD20-Chelsea-06-5941-001,Licor - CTD 24 - SN 70111,Oxygen CTD 20-SBE 43-SN 1794,Pressure CTD 20,SCRIPPS Automated Photometric Oxygen System,SEAL AutoAnalyzer 3 HR,SEAL AutoAnalyzer 3 HR,SEAL AutoAnalyzer 3 HR,SEAL AutoAnalyzer 3 HR,SEAL AutoAnalyzer 3 HR,Temperature CTD 20 - SN 4722 2437 2015-11-30 16:47 2015-11-30 17:01 -36.2461 136.2188 -36.2455 136.2188 91
IN2015_C02 [details] Catch [details] 19   EZ Net 1 2437 2015-12-01 01:21 2015-12-01 02:17 -37.2038 135.5920 -37.2329 135.5620 Area: Transect6-5000m
IN2015_C02 [details] Catch [details] 24   Surface Net 2437 2015-12-01 01:52 2015-12-01 02:14 -37.2212 135.5740 -37.2313 135.5630 Area: Transect6-5000m
IN2015_C02 [details] Catch [details] 20   EZ Net 2 2437 2015-12-01 02:18 2015-12-01 02:41 -37.2334 135.5610 -37.2444 135.5470 Area: Transect6-5000m
IN2015_C02 [details] Catch [details] 21   EZ Net 3 2437 2015-12-01 02:41 2015-12-01 03:06 -37.2444 135.5470 -37.2549 135.5340 Area: Transect6-5000m
IN2015_C02 [details] Catch [details] 22   EZ Net 4 2437 2015-12-01 03:07 2015-12-01 03:29 -37.2553 135.5340 -37.2656 135.5210 Area: Transect6-5000m
IN2015_C02 [details] Catch [details] 23   EZ Net 5 2437 2015-12-01 03:26 2015-12-01 03:44 -37.2641 135.5230 -37.2725 135.5130 Area: Transect6-5000m
IN2015_C02 [details] Catch [details] 25   Mid Ocean Open Close - MIDOC. 2437 2015-12-01 04:58 2015-12-01 05:44 -37.2789 135.5140 -37.2577 135.5450 Area: Transect6-5000m
IN2015_C02 [details] Catch [details] 26   EZ Net 1 2437 2015-12-01 11:54 2015-12-01 12:14 -37.2046 135.6880 -37.2150 135.6750 Area: Transect6-5000m
IN2015_C02 [details] Catch [details] 27   EZ Net 2 2437 2015-12-01 12:14 2015-12-01 12:28 -37.2150 135.6750 -37.2218 135.6650 Area: Transect6-5000m
IN2015_C02 [details] Catch [details] 28   EZ Net 3 2437 2015-12-01 12:28 2015-12-01 12:37 -37.2219 135.6650 -37.2261 135.6590 Area: Transect6-5000m
IN2015_C02 [details] Catch [details] 29   EZ Net 4 2437 2015-12-01 12:37 2015-12-01 12:47 -37.2261 135.6590 -37.2310 135.6520 Area: Transect6-5000m
IN2015_C02 [details] Catch [details] 30   EZ Net 5 2437 2015-12-01 12:47 2015-12-01 12:57 -37.2310 135.6520 -37.2360 135.6440 Area: Transect6-5000m
IN2015_C02 [details] CTD Cast / Hydrology [details] 4   Cast 4 Autosal Salinometer,CTD 20 - SN 0552,Conductivity CTD 20 - SN 3868,Fluorometer-CTD20-Chelsea-06-5941-001,Licor - CTD 24 - SN 70111,Oxygen CTD 20-SBE 43-SN 1794,Pressure CTD 20,SCRIPPS Automated Photometric Oxygen System,SEAL AutoAnalyzer 3 HR,SEAL AutoAnalyzer 3 HR,SEAL AutoAnalyzer 3 HR,SEAL AutoAnalyzer 3 HR,SEAL AutoAnalyzer 3 HR,Temperature CTD 20 - SN 4722 2437 2015-12-01 13:26 2015-12-01 14:19 -37.2413 135.6406 -37.2435 135.6427 806
IN2015_C02 [details] Catch [details] 32   VNDUA Bongo net 2437 2015-12-01 14:31 2015-12-01 14:47 -37.2431 135.6440 -37.2439 135.6460 Area: Transect6-5000m
IN2015_C02 [details] Catch [details] 33   VN335 Bongo net 2437 2015-12-01 14:53 2015-12-01 15:11 -37.2437 135.6460 -37.2438 135.6480 Area: Transect6-5000m
IN2015_C02 [details] Catch [details] 35   Surface Net 2437 2015-12-01 17:45 2015-12-01 17:55 -37.2361 135.6410 -37.2406 135.6350 Area: Transect6-5000m
IN2015_C02 [details] Catch [details] 36   Surface Net 2437 2015-12-01 17:57 2015-12-01 18:07 -37.2416 135.6330 -37.2462 135.6270 Area: Transect6-5000m
IN2015_C02 [details] Catch [details] 37   Surface Net 2437 2015-12-01 18:10 2015-12-01 18:20 -37.2476 135.6250 -37.2521 135.6190 Area: Transect6-5000m
IN2015_C02 [details] CTD Cast / Hydrology [details] 5   Cast 5 Autosal Salinometer,CTD 20 - SN 0552,Conductivity CTD 20 - SN 3868,Fluorometer-CTD20-Chelsea-06-5941-001,Licor - CTD 24 - SN 70111,Oxygen CTD 20-SBE 43-SN 1794,Pressure CTD 20,SCRIPPS Automated Photometric Oxygen System,SEAL AutoAnalyzer 3 HR,SEAL AutoAnalyzer 3 HR,SEAL AutoAnalyzer 3 HR,SEAL AutoAnalyzer 3 HR,SEAL AutoAnalyzer 3 HR,Temperature CTD 20 - SN 4722 2437 2015-12-01 19:02 2015-12-01 19:58 -37.2666 135.5981 -37.2649 135.5974 806
IN2015_C02 [details] Catch [details] 41   VNDUA Bongo net 2437 2015-12-01 20:53 2015-12-01 21:15 -37.2566 135.6060 -37.2537 135.6040 Area: Transect6-5000m
IN2015_C02 [details] Catch [details] 42   VNDUA Bongo net 2437 2015-12-01 21:36 -37.2527 135.6030 Area: Transect6-5000m
IN2015_C02 [details] Catch [details] 43   VN335 Bongo net 2437 2015-12-01 22:00 -37.2527 135.6050 Area: Transect6-5000m
IN2015_C02 [details] Catch [details] 44   VNDUA Bongo net 2437 2015-12-01 22:20 2015-12-01 22:36 -37.2529 135.6060 -37.2531 135.6070 Area: Transect6-5000m
IN2015_C02 [details] Catch [details] 47   Surface Net 2437 2015-12-02 00:34 2015-12-02 00:45 -37.2692 135.5540 -37.2717 135.5440 Area: Transect6-5000m
IN2015_C02 [details] Catch [details] 48   Surface Net 2437 2015-12-02 00:48 2015-12-02 00:58 -37.2724 135.5410 -37.2750 135.5310 Area: Transect6-5000m
IN2015_C02 [details] Catch [details] 49   Surface Net 2437 2015-12-02 01:00 2015-12-02 01:10 -37.2755 135.5290 -37.2782 135.5190 Area: Transect6-5000m
IN2015_C02 [details] Catch [details] 50   Profiling Lagrangian Acoustic Optical System (pLAOS) 2437 2015-12-02 03:05 2015-12-02 04:19 -37.2970 135.4570 -37.3017 135.4590 Area: Transect6-5000m
IN2015_C02 [details] Catch [details] 51   MIDOC Net 1 2437 2015-12-02 05:55 2015-12-02 06:55 -37.1840 135.5670 -37.2066 135.5130 Area: Transect6-5000m
IN2015_C02 [details] Catch [details] 52   MIDOC Net 2 2437 2015-12-02 06:55 2015-12-02 07:15 -37.2066 135.5130 -37.2139 135.4940 Area: Transect6-5000m
IN2015_C02 [details] Catch [details] 53   MIDOC Net 3 2437 2015-12-02 07:15 2015-12-02 07:35 -37.2139 135.4940 -37.2206 135.4770 Area: Transect6-5000m
IN2015_C02 [details] Catch [details] 54   MIDOC Net 4 2437 2015-12-02 07:35 2015-12-02 07:55 -37.2206 135.4770 -37.2255 135.4650 Area: Transect6-5000m
IN2015_C02 [details] Catch [details] 55   MIDOC Net 5 2437 2015-12-02 07:55 2015-12-02 08:05 -37.2255 135.4650 -37.2283 135.4580 Area: Transect6-5000m
IN2015_C02 [details] Catch [details] 56   Mid Ocean Open Close - MIDOC. 2437 2015-12-02 08:05 2015-12-02 08:15 -37.2283 135.4580 -37.2310 135.4510 Area: Transect6-5000m
IN2015_C02 [details] Catch [details] 57   Profiling Lagrangian Acoustic Optical System (pLAOS) 2437 2015-12-02 11:06 2015-12-02 12:16 -36.9881 135.7880 -36.9913 135.7970 Area: Transect6-5000m
IN2015_C02 [details] CTD Cast / Hydrology [details] 6   Cast 6 Autosal Salinometer,CTD 20 - SN 0552,Conductivity CTD 20 - SN 3868,Fluorometer-CTD20-Chelsea-06-5941-001,Licor - CTD 24 - SN 70111,Oxygen CTD 20-SBE 43-SN 1794,Pressure CTD 20,SCRIPPS Automated Photometric Oxygen System,SEAL AutoAnalyzer 3 HR,SEAL AutoAnalyzer 3 HR,SEAL AutoAnalyzer 3 HR,SEAL AutoAnalyzer 3 HR,SEAL AutoAnalyzer 3 HR,Temperature CTD 20 - SN 4722 2437 2015-12-02 12:42 2015-12-02 13:30 -36.9920 135.7996 -36.9955 135.8069 803
IN2015_C02 [details] CTD Cast / Hydrology [details] 7   Cast 7 Autosal Salinometer,CTD 20 - SN 0552,Conductivity CTD 20 - SN 3868,Fluorometer-CTD20-Chelsea-06-5941-001,Licor - CTD 24 - SN 70111,Oxygen CTD 20-SBE 43-SN 1794,Pressure CTD 20,SCRIPPS Automated Photometric Oxygen System,SEAL AutoAnalyzer 3 HR,SEAL AutoAnalyzer 3 HR,SEAL AutoAnalyzer 3 HR,SEAL AutoAnalyzer 3 HR,SEAL AutoAnalyzer 3 HR,Temperature CTD 20 - SN 4722 2437 2015-12-02 15:22 2015-12-02 16:18 -36.7703 135.9156 -36.7709 135.9161 805
IN2015_C02 [details] CTD Cast / Hydrology [details] 8   Cast 8 Autosal Salinometer,CTD 20 - SN 0552,Conductivity CTD 20 - SN 3868,Fluorometer-CTD20-Chelsea-06-5941-001,Licor - CTD 24 - SN 70111,Oxygen CTD 20-SBE 43-SN 1794,Pressure CTD 20,SCRIPPS Automated Photometric Oxygen System,SEAL AutoAnalyzer 3 HR,SEAL AutoAnalyzer 3 HR,SEAL AutoAnalyzer 3 HR,SEAL AutoAnalyzer 3 HR,SEAL AutoAnalyzer 3 HR,Temperature CTD 20 - SN 4722 2437 2015-12-02 17:58 2015-12-02 18:51 -36.5958 136.0144 -36.5944 136.0111 807
IN2015_C02 [details] Catch [details] 63   VNDUA Bongo net 2437 2015-12-02 19:47 2015-12-02 20:00 -36.5941 136.0050 -36.5939 136.0050 Area: Transect6-3000m
IN2015_C02 [details] Catch [details] 64   VN335 Bongo net 2437 2015-12-02 20:04 2015-12-02 20:18 -36.5940 136.0040 -36.5939 136.0030 Area: Transect6-3000m
IN2015_C02 [details] Catch [details] 66   EZ Net 1 2437 2015-12-02 22:10 2015-12-02 22:22 -36.5712 135.9780 -36.5652 135.9700 Area: Transect6-3000m
IN2015_C02 [details] Catch [details] 67   EZ Net 2 2437 2015-12-02 22:22 2015-12-02 22:37 -36.5652 135.9700 -36.5577 135.9610 Area: Transect6-3000m
IN2015_C02 [details] Catch [details] 71   Surface Net 2437 2015-12-02 22:23 2015-12-02 22:33 -36.5647 135.9700 -36.5596 135.9630 Area: Transect6-3000m
IN2015_C02 [details] Catch [details] 220   Surface Net 2437 2015-12-02 22:35 -36.5586 135.9620 Area: Transit
IN2015_C02 [details] Catch [details] 68   EZ Net 3 2437 2015-12-02 22:37 2015-12-02 22:49 -36.5577 135.9610 -36.5516 135.9530 Area: Transect6-3000m
IN2015_C02 [details] Catch [details] 72   Surface Net 2437 2015-12-02 22:40 2015-12-02 22:51 -36.5562 135.9590 -36.5506 135.9510 Area: Transect6-3000m
IN2015_C02 [details] Catch [details] 69   EZ Net 4 2437 2015-12-02 22:49 2015-12-02 22:59 -36.5516 135.9530 -36.5463 135.9460 Area: Transect6-3000m
IN2015_C02 [details] Catch [details] 73   Surface Net 2437 2015-12-02 22:55 2015-12-02 23:05 -36.5485 135.9480 -36.5431 135.9420 Area: Transect6-3000m
IN2015_C02 [details] Catch [details] 70   EZ Net 5 2437 2015-12-02 23:00 2015-12-02 23:10 -36.5458 135.9450 -36.5402 135.9380 Area: Transect6-3000m
IN2015_C02 [details] Catch [details] 74   Profiling Lagrangian Acoustic Optical System (pLAOS) 2437 2015-12-03 00:14 2015-12-03 01:33 -36.5754 135.9900 -36.5743 135.9770 Area: Transect6-3000m
IN2015_C02 [details] Catch [details] 75   MIDOC Net 1 2437 2015-12-03 03:45 2015-12-03 04:45 -36.4477 136.0720 -36.4888 136.1180 Area: Transect6-400m
IN2015_C02 [details] Catch [details] 76   MIDOC Net 2 2437 2015-12-03 04:45 2015-12-03 05:05 -36.4888 136.1180 -36.4942 136.1380 Area: Transect6-400m
IN2015_C02 [details] Catch [details] 77   MIDOC Net 3 2437 2015-12-03 05:05 2015-12-03 05:15 -36.4942 136.1380 -36.4970 136.1470 Area: Transect6-400m
IN2015_C02 [details] Catch [details] 78   MIDOC Net 4 2437 2015-12-03 05:15 2015-12-03 05:25 -36.4970 136.1470 -36.5000 136.1570 Area: Transect6-400m
IN2015_C02 [details] Catch [details] 79   MIDOC Net 5 2437 2015-12-03 05:25 2015-12-03 05:35 -36.5000 136.1570 -36.5033 136.1660 Area: Transect6-400m
IN2015_C02 [details] Catch [details] 80   Mid Ocean Open Close - MIDOC. 2437 2015-12-03 05:45 2015-12-03 05:55 -36.5067 136.1740 -36.5094 136.1820 Area: Transect6-400m
IN2015_C02 [details] Catch [details] 81   EZ Net 1 2437 2015-12-03 07:22 2015-12-03 07:42 -36.4726 136.1290 -36.4699 136.1130 Area: Transect6-400m
IN2015_C02 [details] Catch [details] 86   Surface Net 2437 2015-12-03 07:40 2015-12-03 07:50 -36.4702 136.1150 -36.4689 136.1070 Area: Transect6-400m
IN2015_C02 [details] Catch [details] 82   EZ Net 2 2437 2015-12-03 07:42 2015-12-03 07:52 -36.4699 136.1130 -36.4685 136.1060 Area: Transect6-400m
IN2015_C02 [details] Catch [details] 83   EZ Net 3 2437 2015-12-03 07:52 2015-12-03 08:03 -36.4685 136.1060 -36.4655 136.0960 Area: Transect6-400m
IN2015_C02 [details] Catch [details] 87   Surface Net 2437 2015-12-03 07:54 2015-12-03 08:04 -36.4678 136.1040 -36.4653 136.0960 Area: Transect6-400m
IN2015_C02 [details] Catch [details] 84   EZ Net 4 2437 2015-12-03 08:03 2015-12-03 08:14 -36.4655 136.0960 -36.4625 136.0870 Area: Transect6-400m
IN2015_C02 [details] Catch [details] 88   Surface Net 2437 2015-12-03 08:06 2015-12-03 08:16 -36.4645 136.0930 -36.4619 136.0850 Area: Transect6-400m
IN2015_C02 [details] Catch [details] 85   EZ Net 5 2437 2015-12-03 08:14 2015-12-03 08:24 -36.4625 136.0870 -36.4588 136.0790 Area: Transect6-400m
IN2015_C02 [details] Catch [details] 89   MIDOC Net 1 2437 2015-12-03 10:40 2015-12-03 11:40 -36.4107 136.0470 -36.4461 136.0690 Area: Transect6-400m
IN2015_C02 [details] Catch [details] 90   MIDOC Net 2 2437 2015-12-03 11:40 2015-12-03 12:00 -36.4461 136.0690 -36.4574 136.0820 Area: Transect6-400m
IN2015_C02 [details] Catch [details] 91   MIDOC Net 3 2437 2015-12-03 12:00 2015-12-03 12:10 -36.4574 136.0820 -36.4628 136.0890 Area: Transect6-400m
IN2015_C02 [details] Catch [details] 92   MIDOC Net 4 2437 2015-12-03 12:10 2015-12-03 12:20 -36.4628 136.0890 -36.4682 136.0970 Area: Transect6-400m
IN2015_C02 [details] Catch [details] 93   MIDOC Net 5 2437 2015-12-03 12:20 2015-12-03 12:30 -36.4682 136.0970 -36.4734 136.1040 Area: Transect6-400m
IN2015_C02 [details] Catch [details] 94   Mid Ocean Open Close - MIDOC. 2437 2015-12-03 12:30 2015-12-03 12:40 -36.4734 136.1040 -36.4779 136.1100 Area: Transect6-400m
IN2015_C02 [details] Catch [details] 95   Profiling Lagrangian Acoustic Optical System (pLAOS) 2437 2015-12-03 14:03 2015-12-03 14:45 -36.4515 136.0890 -36.4491 136.0870 Area: Transect6-400m
IN2015_C02 [details] CTD Cast / Hydrology [details] 9   Cast 9 Autosal Salinometer,CTD 20 - SN 0552,Conductivity CTD 20 - SN 3868,Fluorometer-CTD20-Chelsea-06-5941-001,Licor - CTD 24 - SN 70111,Oxygen CTD 20-SBE 43-SN 1794,Pressure CTD 20,SCRIPPS Automated Photometric Oxygen System,SEAL AutoAnalyzer 3 HR,SEAL AutoAnalyzer 3 HR,SEAL AutoAnalyzer 3 HR,SEAL AutoAnalyzer 3 HR,SEAL AutoAnalyzer 3 HR,Temperature CTD 20 - SN 4722 2437 2015-12-03 15:08 2015-12-03 15:53 -36.4490 136.0861 -36.4492 136.0848 503
IN2015_C02 [details] Catch [details] 97   VNDUA Bongo net 2437 2015-12-03 16:14 2015-12-03 16:25 -36.4494 136.0840 Area: Transect6-400m
IN2015_C02 [details] Catch [details] 98   VN335 Bongo net 2437 2015-12-03 16:25 -36.4492 136.0830 Area: Transect6-400m
IN2015_C02 [details] Catch [details] 99   EZ Net 1 2437 2015-12-03 17:03 2015-12-03 17:10 -36.4583 136.0960 -36.4621 136.1000 Area: Transect6-400m
IN2015_C02 [details] Catch [details] 100   EZ Net 2 2437 2015-12-03 17:11 2015-12-03 17:21 -36.4622 136.1000 -36.4668 136.1060 Area: Transect6-400m
IN2015_C02 [details] Catch [details] 104   Surface Net 2437 2015-12-03 17:18 2015-12-03 17:28 -36.4652 136.1040 -36.4701 136.1110 Area: Transect6-400m
IN2015_C02 [details] Catch [details] 101   EZ Net 3 2437 2015-12-03 17:21 2015-12-03 17:31 -36.4669 136.1060 -36.4716 136.1130 Area: Transect6-400m
IN2015_C02 [details] Catch [details] 105   Surface Net 2437 2015-12-03 17:31 2015-12-03 17:41 -36.4715 136.1120 -36.4764 136.1190 Area: Transect6-400m
IN2015_C02 [details] Catch [details] 102   EZ Net 4 2437 2015-12-03 17:31 2015-12-03 17:41 -36.4717 136.1130 -36.4767 136.1200 Area: Transect6-400m
IN2015_C02 [details] Catch [details] 103   EZ Net 5 2437 2015-12-03 17:41 2015-12-03 17:41 -36.4768 136.1200 -36.4769 136.1200 Area: Transect6-400m
IN2015_C02 [details] Catch [details] 106   Surface Net 2437 2015-12-03 17:55 2015-12-03 18:05 -36.4836 136.1290 -36.4890 136.1360 Area: Transect6-400m
IN2015_C02 [details] Catch [details] 110   VNDUA Bongo net 2437 2015-12-03 19:52 -36.4491 136.0680 Area: Transect6-400m
IN2015_C02 [details] Catch [details] 111   VN335 Bongo net 2437 2015-12-03 20:13 -36.4484 136.0650 Area: Transect6-400m
IN2015_C02 [details] Catch [details] 112   VNDUA Bongo net 2437 2015-12-03 20:19 2015-12-03 20:36 -36.4484 136.0650 -36.4489 136.0610 Area: Transect6-400m
IN2015_C02 [details] Catch [details] 114   Profiling Lagrangian Acoustic Optical System (pLAOS) 2437 2015-12-03 23:11 -36.4517 136.0900 Area: Transect6-400m
IN2015_C02 [details] CTD Cast / Hydrology [details] 11   Cast 11 Autosal Salinometer,CTD 20 - SN 0552,Conductivity CTD 20 - SN 3868,Fluorometer-CTD20-Chelsea-06-5941-001,Licor - CTD 24 - SN 70111,Oxygen CTD 20-SBE 43-SN 1794,Pressure CTD 20,SCRIPPS Automated Photometric Oxygen System,SEAL AutoAnalyzer 3 HR,SEAL AutoAnalyzer 3 HR,SEAL AutoAnalyzer 3 HR,SEAL AutoAnalyzer 3 HR,SEAL AutoAnalyzer 3 HR,Temperature CTD 20 - SN 4722 2437 2015-12-04 02:08 2015-12-04 02:45 -36.4471 136.0883 -36.4462 136.0865 403
IN2015_C02 [details] Catch [details] 117   Surface Net 2437 2015-12-04 05:00 -36.3954 136.0700 Area: Transit
IN2015_C02 [details] Catch [details] 119   MIDOC Net 1 2437 2015-12-04 09:52 2015-12-04 10:27 -35.7547 135.4960 -35.7429 135.4580 Area: Transit
IN2015_C02 [details] Catch [details] 120   MIDOC Net 2 2437 2015-12-04 10:27 2015-12-04 10:37 -35.7429 135.4580 -35.7427 135.4460 Area: Transit
IN2015_C02 [details] Catch [details] 121   MIDOC Net 3 2437 2015-12-04 10:37 2015-12-04 10:48 -35.7427 135.4460 -35.7420 135.4340 Area: Transit
IN2015_C02 [details] Catch [details] 122   MIDOC Net 4 2437 2015-12-04 10:48 2015-12-04 10:58 -35.7420 135.4340 -35.7410 135.4230 Area: Transit
IN2015_C02 [details] Catch [details] 123   MIDOC Net 5 2437 2015-12-04 10:58 2015-12-04 11:08 -35.7410 135.4230 -35.7399 135.4120 Area: Transit
IN2015_C02 [details] Catch [details] 124   Mid Ocean Open Close - MIDOC. 2437 2015-12-04 11:08 2015-12-04 11:18 -35.7399 135.4120 -35.7386 135.4000 Area: Transit
IN2015_C02 [details] Catch [details] 126   CSIRO 4m Beam Trawl 2437 2015-12-04 20:00 2015-12-04 20:24 -35.0428 134.0790 -35.0378 134.0660 Area: T5-400
IN2015_C02 [details] CTD Cast / Hydrology [details] 12   Cast 12 Autosal Salinometer,CTD 20 - SN 0552,Conductivity CTD 20 - SN 3868,Fluorometer-CTD20-Chelsea-06-5941-001,Licor - CTD 24 - SN 70111,Oxygen CTD 20-SBE 43-SN 1794,Pressure CTD 20,SCRIPPS Automated Photometric Oxygen System,SEAL AutoAnalyzer 3 HR,SEAL AutoAnalyzer 3 HR,SEAL AutoAnalyzer 3 HR,SEAL AutoAnalyzer 3 HR,SEAL AutoAnalyzer 3 HR,Temperature CTD 20 - SN 4722 2437 2015-12-04 22:14 2015-12-04 22:47 -35.0484 134.0896 -35.0481 134.0899 402
IN2015_C02 [details] Catch [details] 128   CSIRO 4m Beam Trawl 2437 2015-12-04 23:33 2015-12-04 23:47 -35.0348 134.0870 -35.0318 134.0810 Area: T5-200
IN2015_C02 [details] Catch [details] 129   Surface Net 2437 2015-12-04 23:34 2015-12-04 23:44 -35.0335 134.0850 -35.0311 134.0790 Area: Transect5-200m
IN2015_C02 [details] Catch [details] 130   Surface Net 2437 2015-12-04 23:48 2015-12-04 23:55 -35.0299 134.0770 -35.0293 134.0750 Area: Transect5-200m
IN2015_C02 [details] Catch [details] 131   CSIRO 4m Beam Trawl 2437 2015-12-05 02:57 2015-12-05 03:47 -35.1527 134.1090 -35.1822 134.1090 Area: T5-1000
IN2015_C02 [details] Catch [details] 132   Surface Net 2437 2015-12-05 03:17 2015-12-05 03:27 -35.1701 134.1110 -35.1753 134.1120 Area: Transect5-1000m
IN2015_C02 [details] Catch [details] 133   Surface Net 2437 2015-12-05 03:30 2015-12-05 03:40 -35.1769 134.1120 -35.1821 134.1130 Area: Transect5-1000m
IN2015_C02 [details] Catch [details] 135   Surface Net 2437 2015-12-05 07:38 2015-12-05 07:48 -35.3613 134.0600 -35.3652 134.0640 Area: Transect5-1500m
IN2015_C02 [details] Catch [details] 136   Surface Net 2437 2015-12-05 07:54 2015-12-05 08:04 -35.3676 134.0660 -35.3714 134.0700 Area: Transect5-1500m
IN2015_C02 [details] Catch [details] 138   Surface Net 2437 2015-12-05 10:53 2015-12-05 11:03 -35.5837 134.0870 -35.5888 134.0870 Area: Transect5-2000m
IN2015_C02 [details] Catch [details] 139   Surface Net 2437 2015-12-05 11:06 2015-12-05 11:16 -35.5905 134.0870 -35.5965 134.0870 Area: Transect5-2000m
IN2015_C02 [details] Catch [details] 140   Surface Net 2437 2015-12-05 11:20 2015-12-05 11:30 -35.5990 134.0870 -35.6052 134.0860 Area: Transect5-2000m
IN2015_C02 [details] Catch [details] 142   Surface Net 2437 2015-12-05 15:29 2015-12-05 15:39 -35.8119 134.1080 -35.8159 134.1080 Area: Transect5-3000m
IN2015_C02 [details] Catch [details] 143   Surface Net 2437 2015-12-05 15:41 2015-12-05 15:51 -35.8168 134.1080 -35.8206 134.1080 Area: Transect5-3000m
IN2015_C02 [details] Catch [details] 144   Surface Net 2437 2015-12-05 15:54 2015-12-05 16:04 -35.8217 134.1070 -35.8260 134.1070 Area: Transect5-3000m
IN2015_C02 [details] Catch [details] 221   Surface Net 2437 2015-12-05 17:15 -35.8395 134.1020 Area: Transit
IN2015_C02 [details] CTD Cast / Hydrology [details] 13   Cast 13 Autosal Salinometer,CTD 20 - SN 0552,Conductivity CTD 20 - SN 3868,Fluorometer-CTD20-Chelsea-06-5941-001,Licor - CTD 24 - SN 70111,Oxygen CTD 20-SBE 43-SN 1794,Pressure CTD 20,SCRIPPS Automated Photometric Oxygen System,SEAL AutoAnalyzer 3 HR,SEAL AutoAnalyzer 3 HR,SEAL AutoAnalyzer 3 HR,SEAL AutoAnalyzer 3 HR,SEAL AutoAnalyzer 3 HR,Temperature CTD 20 - SN 4722 2437 2015-12-05 18:16 2015-12-05 19:04 -35.8448 134.0980 -35.8397 134.0948 799
IN2015_C02 [details] Catch [details] 222   Surface Net 2437 2015-12-05 23:15 -35.8265 134.0430 Area: Transit
IN2015_C02 [details] Catch [details] 147   Surface Net 2437 2015-12-06 03:36 2015-12-06 06:25 -35.8428 133.1630 -35.7947 132.6790 Area: Transect4-3000m
IN2015_C02 [details] Catch [details] 149   Surface Net 2437 2015-12-06 07:52 2015-12-06 08:09 -35.7967 132.6780 Area: Transect4-3000m
IN2015_C02 [details] Catch [details] 152   Surface Net 2437 2015-12-06 12:27 2015-12-06 12:37 -35.7809 132.6780 -35.7765 132.6780 Area: Transect4-3000m
IN2015_C02 [details] Catch [details] 153   Surface Net 2437 2015-12-06 12:39 2015-12-06 12:49 -35.7753 132.6780 -35.7707 132.6770 Area: Transect4-3000m
IN2015_C02 [details] Catch [details] 154   Surface Net 2437 2015-12-06 12:52 2015-12-06 13:02 -35.7693 132.6770 -35.7647 132.6770 Area: Transect4-3000m
IN2015_C02 [details] Catch [details] 155   CSIRO 4m Beam Trawl 2437 2015-12-06 16:34 2015-12-06 17:27 -35.5399 132.6760 -35.5156 132.6770 Area: T4-2000
IN2015_C02 [details] Catch [details] 156   Surface Net 2437 2015-12-06 16:51 2015-12-06 17:01 -35.5134 132.6760 -35.5080 132.6760 Area: Transect4-2000m
IN2015_C02 [details] Catch [details] 157   Surface Net 2437 2015-12-06 17:04 2015-12-06 17:14 -35.5064 132.6760 -35.5012 132.6760 Area: Transect4-2000m
IN2015_C02 [details] Catch [details] 158   Surface Net 2437 2015-12-06 17:18 2015-12-06 17:28 -35.4992 132.6760 -35.4964 132.6760 Area: Transect4-2000m
IN2015_C02 [details] Catch [details] 159   CSIRO 4m Beam Trawl 2437 2015-12-06 20:32 2015-12-06 21:37 -35.3362 132.6890 -35.3030 132.6930 Area: T4-1500
IN2015_C02 [details] Catch [details] 160   Surface Net 2437 2015-12-06 21:02 2015-12-06 21:12 -35.3081 132.6920 -35.3026 132.6930 Area: Transect4-1500m
IN2015_C02 [details] Catch [details] 161   Surface Net 2437 2015-12-06 21:15 2015-12-06 21:25 -35.3009 132.6930 -35.2954 132.6940 Area: Transect4-1500m
IN2015_C02 [details] Catch [details] 162   Surface Net 2437 2015-12-06 21:28 2015-12-06 21:38 -35.2937 132.6940 -35.2880 132.6940 Area: Transect4-1500m
IN2015_C02 [details] Catch [details] 164   Surface Net 2437 2015-12-07 02:16 2015-12-07 02:26 -34.8075 132.6710 -34.8021 132.6710 Area: Transect4-1000m
IN2015_C02 [details] Catch [details] 165   Surface Net 2437 2015-12-07 02:27 2015-12-07 02:37 -34.8016 132.6710 -34.7963 132.6710 Area: Transect4-1000m
IN2015_C02 [details] Catch [details] 166   Surface Net 2437 2015-12-07 02:38 2015-12-07 02:48 -34.7958 132.6710 -34.7906 132.6710 Area: Transect4-1000m
IN2015_C02 [details] CTD Cast / Hydrology [details] 14   Cast 14 Autosal Salinometer,CTD 20 - SN 0552,Conductivity CTD 20 - SN 3868,Fluorometer-CTD20-Chelsea-06-5941-001,Licor - CTD 24 - SN 70111,Oxygen CTD 20-SBE 43-SN 1794,Pressure CTD 20,SCRIPPS Automated Photometric Oxygen System,SEAL AutoAnalyzer 3 HR,SEAL AutoAnalyzer 3 HR,SEAL AutoAnalyzer 3 HR,SEAL AutoAnalyzer 3 HR,SEAL AutoAnalyzer 3 HR,Temperature CTD 20 - SN 4722 2437 2015-12-07 09:30 2015-12-07 10:15 -34.2921 132.6761 -34.3060 132.6870 806
IN2015_C02 [details] Catch [details] 168   MIDOC Net 1 2437 2015-12-07 10:47 2015-12-07 11:37 -34.3157 132.6190 -34.3155 132.6700 Area: Transect4-400m
IN2015_C02 [details] Catch [details] 169   MIDOC Net 2 2437 2015-12-07 11:37 2015-12-07 11:47 -34.3155 132.6700 -34.3151 132.6830 Area: Transect4-400m
IN2015_C02 [details] Catch [details] 170   MIDOC Net 3 2437 2015-12-07 11:47 2015-12-07 11:57 -34.3151 132.6830 -34.3147 132.6950 Area: Transect4-400m
IN2015_C02 [details] Catch [details] 171   MIDOC Net 4 2437 2015-12-07 11:57 2015-12-07 12:07 -34.3161 132.6270 Area: Transect4-400m
IN2015_C02 [details] Catch [details] 172   MIDOC Net 5 2437 2015-12-07 12:07 2015-12-07 12:17 -34.3145 132.7080 -34.3142 132.7210 Area: Transect4-400m
IN2015_C02 [details] Catch [details] 173   Mid Ocean Open Close - MIDOC. 2437 2015-12-07 12:17 2015-12-07 12:27 -34.3142 132.7210 -34.3138 132.7330 Area: Transect4-400m
IN2015_C02 [details] CTD Cast / Hydrology [details] 15   Cast 15 Autosal Salinometer,CTD 20 - SN 0552,Conductivity CTD 20 - SN 3868,Fluorometer-CTD20-Chelsea-06-5941-001,Licor - CTD 24 - SN 70111,Oxygen CTD 20-SBE 43-SN 1794,Pressure CTD 20,SCRIPPS Automated Photometric Oxygen System,SEAL AutoAnalyzer 3 HR,SEAL AutoAnalyzer 3 HR,SEAL AutoAnalyzer 3 HR,SEAL AutoAnalyzer 3 HR,SEAL AutoAnalyzer 3 HR,Temperature CTD 20 - SN 4722 2437 2015-12-07 15:54 2015-12-07 16:32 -34.2777 132.5848 -34.2805 132.5855 404
IN2015_C02 [details] Catch [details] 176   Surface Net 2437 2015-12-07 16:41 2015-12-07 16:51 -34.2799 132.5900 -34.2793 132.5970 Area: Transect4-400m
IN2015_C02 [details] Catch [details] 177   Surface Net 2437 2015-12-07 16:54 2015-12-07 17:04 -34.2790 132.6000 -34.2781 132.6070 Area: Transect4-400m
IN2015_C02 [details] Catch [details] 178   Surface Net 2437 2015-12-07 17:07 2015-12-07 17:17 -34.2780 132.6100 -34.2774 132.6170 Area: Transect4-400m
IN2015_C02 [details] Catch [details] 179   CSIRO 4m Beam Trawl 2437 2015-12-07 18:07 2015-12-07 18:24 -34.2778 132.6930 -34.2867 132.6980 Area: T4-200
IN2015_C02 [details] Catch [details] 180   Surface Net 2437 2015-12-07 18:11 2015-12-07 18:24 -34.2821 132.6970 -34.2899 132.6980 Area: Transect4-200m
IN2015_C02 [details] Catch [details] 181   CSIRO 4m Beam Trawl 2437 2015-12-07 20:19 2015-12-07 20:35 -34.2903 132.6890 -34.2855 132.6980 Area: T4-200
IN2015_C02 [details] Catch [details] 182   Surface Net 2437 2015-12-07 21:36 2015-12-07 21:46 -34.2623 132.6690 -34.2599 132.6630 Area: Transect4-200m
IN2015_C02 [details] Catch [details] 183   Surface Net 2437 2015-12-07 21:49 2015-12-07 21:59 -34.2592 132.6610 -34.2567 132.6550 Area: Transect4-200m
IN2015_C02 [details] Catch [details] 184   Surface Net 2437 2015-12-07 22:01 2015-12-07 22:11 -34.2561 132.6540 -34.2529 132.6480 Area: Transect4-200m
IN2015_C02 [details] Catch [details] 187   Surface Net 2437 2015-12-08 11:44 2015-12-08 11:54 -33.4909 131.0670 -33.4931 131.0610 Area: Transect3-400m
IN2015_C02 [details] Catch [details] 188   Surface Net 2437 2015-12-08 11:56 2015-12-08 12:06 -33.4936 131.0600 -33.4956 131.0540 Area: Transect3-400m
IN2015_C02 [details] CTD Cast / Hydrology [details] 16   Cast 16 Autosal Salinometer,CTD 20 - SN 0552,Conductivity CTD 20 - SN 3868,Fluorometer-CTD20-Chelsea-06-5941-001,Licor - CTD 24 - SN 70111,Oxygen CTD 20-SBE 43-SN 1794,Pressure CTD 20,SCRIPPS Automated Photometric Oxygen System,SEAL AutoAnalyzer 3 HR,SEAL AutoAnalyzer 3 HR,SEAL AutoAnalyzer 3 HR,SEAL AutoAnalyzer 3 HR,SEAL AutoAnalyzer 3 HR,Temperature CTD 20 - SN 4722 2437 2015-12-08 12:49 2015-12-08 13:19 -33.5059 131.0430 -33.5081 131.0462 403
IN2015_C02 [details] Catch [details] 189   Surface Net 2437 2015-12-08 13:33 2015-12-08 13:43 -33.5065 131.0480 -33.4989 131.0500 Area: Transect3-400m
IN2015_C02 [details] Catch [details] 192   Surface Net 2437 2015-12-08 15:26 2015-12-08 15:36 -33.4327 131.0230 -33.4402 131.0240 Area: Transect3-200m
IN2015_C02 [details] Catch [details] 193   Surface Net 2437 2015-12-08 15:39 2015-12-08 15:49 -33.4423 131.0240 -33.4492 131.0240 Area: Transect3-200m
IN2015_C02 [details] Catch [details] 194   Surface Net 2437 2015-12-08 15:52 2015-12-08 16:02 -33.4203 131.0280 -33.4581 131.0250 Area: Transect3-200m
IN2015_C02 [details] Catch [details] 196   CSIRO 4m Beam Trawl 2437 2015-12-08 19:20 2015-12-08 20:05 -33.9283 131.0610 -33.9481 131.0600 Area: T3-1000
IN2015_C02 [details] Catch [details] 197   Surface Net 2437 2015-12-08 19:32 2015-12-08 19:42 -33.9425 131.0600 -33.9478 131.0600 Area: Transect3-1000m
IN2015_C02 [details] Catch [details] 198   Surface Net 2437 2015-12-08 19:44 2015-12-08 19:54 -33.9489 131.0600 -33.9534 131.0600 Area: Transect3-1000m
IN2015_C02 [details] Catch [details] 199   Surface Net 2437 2015-12-08 19:58 2015-12-08 20:08 -33.9554 131.0600 -33.9613 131.0600 Area: Transect3-1000m
IN2015_C02 [details] Catch [details] 202   CSIRO 4m Beam Trawl 2437 2015-12-09 02:11 -34.6091 131.0560 -34.6352 131.0570 Area: T3-1500
IN2015_C02 [details] Catch [details] 203   Surface Net 2437 2015-12-09 02:28 2015-12-09 02:38 -34.6349 131.0570 -34.6403 131.0570 Area: Transect3-1500m
IN2015_C02 [details] Catch [details] 204   Surface Net 2437 2015-12-09 02:40 2015-12-09 02:48 -34.6414 131.0570 -34.6458 131.0570 Area: Transect3-1500m
IN2015_C02 [details] Catch [details] 205   Surface Net 2437 2015-12-09 02:50 2015-12-09 03:00 -34.6469 131.0570 -34.6507 131.0570 Area: Transect3-1500m
IN2015_C02 [details] XBT Cast [details]   Sippican Deep Blue 2548 2015-12-09 04:31 1100.3
IN2015_C02 [details] XBT Cast [details]   Sippican Deep Blue 2548 2015-12-09 08:17 1100.3
IN2015_C02 [details] Catch [details] 208   Surface Net 2437 2015-12-09 08:48 2015-12-09 08:58 -35.0596 131.0770 -35.0637 131.0770 Area: Transect3-2000m
IN2015_C02 [details] Catch [details] 209   Surface Net 2437 2015-12-09 09:01 2015-12-09 09:11 -35.0650 131.0770 -35.0694 131.0770 Area: Transect3-2000m
IN2015_C02 [details] Catch [details] 210   Surface Net 2437 2015-12-09 09:13 2015-12-09 09:23 -35.0704 131.0770 -35.0748 131.0770 Area: Transect2-2000m
IN2015_C02 [details] XBT Cast [details]   Sippican Deep Blue 2548 2015-12-09 11:20 1100.3
IN2015_C02 [details] XBT Cast [details]   Sippican Deep Blue 2548 2015-12-09 16:07 1100.3
IN2015_C02 [details] Catch [details] 214   Surface Net 2437 2015-12-09 18:01 -35.2404 131.0720 Area: Transect3-3000m
IN2015_C02 [details] CTD Cast / Hydrology [details] 17   Cast 17 Autosal Salinometer,CTD 20 - SN 0552,Conductivity CTD 20 - SN 3868,Fluorometer-CTD20-Chelsea-06-5941-001,Licor - CTD 24 - SN 70111,Oxygen CTD 20-SBE 43-SN 1794,Pressure CTD 20,SCRIPPS Automated Photometric Oxygen System,SEAL AutoAnalyzer 3 HR,SEAL AutoAnalyzer 3 HR,SEAL AutoAnalyzer 3 HR,SEAL AutoAnalyzer 3 HR,SEAL AutoAnalyzer 3 HR,Temperature CTD 20 - SN 4722 2437 2015-12-09 18:12 2015-12-09 19:03 -35.2400 131.0726 -35.2358 131.0709 802
IN2015_C02 [details] Catch [details] 217   Surface Net 2437 2015-12-09 21:08 2015-12-09 21:18 -35.2682 131.0350 -35.2710 131.0320 Area: Transect3-3000m
IN2015_C02 [details] Catch [details] 218   Surface Net 2437 2015-12-09 21:20 2015-12-09 21:30 -35.2715 131.0310 -35.2746 131.0280 Area: Transect3-3000m
IN2015_C02 [details] Catch [details] 216   CSIRO 4m Beam Trawl 2437 2015-12-09 21:27 2015-12-09 23:09 -35.2617 131.0420 -35.2820 131.0200 Area: T3-3000
IN2015_C02 [details] Catch [details] 219   Surface Net 2437 2015-12-09 21:32 2015-12-09 21:42 -35.2752 131.0270 -35.2789 131.0240 Area: Transect3-3000m
IN2015_C02 [details] XBT Cast [details]   Sippican Deep Blue 2548 2015-12-10 00:58 1100.3
IN2015_C02 [details] CTD Cast / Hydrology [details] 18   Cast 18 Autosal Salinometer,CTD 20 - SN 0552,Conductivity CTD 20 - SN 3868,Fluorometer-CTD20-Chelsea-06-5941-001,Licor - CTD 24 - SN 70111,Oxygen CTD 20-SBE 43-SN 1794,Pressure CTD 20,SCRIPPS Automated Photometric Oxygen System,SEAL AutoAnalyzer 3 HR,SEAL AutoAnalyzer 3 HR,SEAL AutoAnalyzer 3 HR,SEAL AutoAnalyzer 3 HR,SEAL AutoAnalyzer 3 HR,Temperature CTD 20 - SN 4722 2437 2015-12-10 03:23 2015-12-10 04:12 -35.1657 130.6694 -35.1656 130.6693 804
IN2015_C02 [details] CTD Cast / Hydrology [details] 19   Cast 19 Autosal Salinometer,CTD 20 - SN 0552,Conductivity CTD 20 - SN 3868,Fluorometer-CTD20-Chelsea-06-5941-001,Licor - CTD 24 - SN 70111,Oxygen CTD 20-SBE 43-SN 1794,Pressure CTD 20,SCRIPPS Automated Photometric Oxygen System,SEAL AutoAnalyzer 3 HR,SEAL AutoAnalyzer 3 HR,SEAL AutoAnalyzer 3 HR,SEAL AutoAnalyzer 3 HR,SEAL AutoAnalyzer 3 HR,Temperature CTD 20 - SN 4722 2437 2015-12-10 10:10 2015-12-10 10:55 -34.9887 130.2782 -34.9890 130.2789 804
IN2015_C02 [details] Catch [details] 227   CSIRO 4m Beam Trawl 2437 2015-12-10 15:02 2015-12-10 17:08 -35.0094 130.3170 -35.0178 130.3410 Area: T1-3000
IN2015_C02 [details] Catch [details] 228   Surface Net 2437 2015-12-10 15:52 2015-12-10 16:02 -35.0255 130.3550 -35.0276 130.3600 Area: Transect1-3000m
IN2015_C02 [details] Catch [details] 229   Surface Net 2437 2015-12-10 16:05 2015-12-10 16:15 -35.0283 130.3610 -35.0302 130.3660 Area: Transect1-3000m
IN2015_C02 [details] Catch [details] 230   Surface Net 2437 2015-12-10 16:17 2015-12-10 16:24 -35.0304 130.3670 -35.0312 130.3700 Area: Transect1-3000m
IN2015_C02 [details] CTD Cast / Hydrology [details] 20   Cast 20 Autosal Salinometer,CTD 20 - SN 0552,Conductivity CTD 20 - SN 3868,Fluorometer-CTD20-Chelsea-06-5941-001,Licor - CTD 24 - SN 70111,Oxygen CTD 20-SBE 43-SN 1794,Pressure CTD 20,SCRIPPS Automated Photometric Oxygen System,SEAL AutoAnalyzer 3 HR,SEAL AutoAnalyzer 3 HR,SEAL AutoAnalyzer 3 HR,SEAL AutoAnalyzer 3 HR,SEAL AutoAnalyzer 3 HR,Temperature CTD 20 - SN 4722 2437 2015-12-10 20:21 2015-12-10 21:08 -35.1638 130.6698 -35.1636 130.6707 803
IN2015_C02 [details] Catch [details] 234   VNDUA Bongo net 2437 2015-12-10 22:00 -35.1629 130.6810 Area: Transect2-3000m
IN2015_C02 [details] Catch [details] 235   VNDUA Bongo net 2437 2015-12-10 22:10 2015-12-10 22:15 -35.1629 130.6810 Area: Transect2-3000m
IN2015_C02 [details] Catch [details] 236   VN335 Bongo net 2437 2015-12-10 22:15 -35.1629 130.6810 Area: Transect2-3000m
IN2015_C02 [details] Catch [details] 238   EZ Net 1 2437 2015-12-11 00:20 2015-12-11 00:40 -35.1978 130.7040 -35.2136 130.7070 Area: Transect2-3000m
IN2015_C02 [details] Catch [details] 243   Surface Net 2437 2015-12-11 00:25 2015-12-11 00:35 -35.2018 130.7050 -35.2098 130.7060 Area: Transect2-3000m
IN2015_C02 [details] Catch [details] 244   Surface Net 2437 2015-12-11 00:36 2015-12-11 00:50 -35.2105 130.7060 -35.2220 130.7090 Area: Transect2-3000m
IN2015_C02 [details] Catch [details] 239   EZ Net 2 2437 2015-12-11 00:47 2015-12-11 00:58 -35.2194 130.7080 -35.2287 130.7100 Area: Transect2-3000m
IN2015_C02 [details] Catch [details] 240   EZ Net 3 2437 2015-12-11 00:58 2015-12-11 01:10 -35.2287 130.7100 -35.2386 130.7130 Area: Transect2-3000m
IN2015_C02 [details] Catch [details] 245   Surface Net 2437 2015-12-11 01:05 2015-12-11 01:16 -35.2346 130.7120 -35.2435 130.7140 Area: Transect2-3000m
IN2015_C02 [details] Catch [details] 241   EZ Net 4 2437 2015-12-11 01:10 2015-12-11 01:20 -35.2386 130.7130 -35.2469 130.7150 Area: Transect2-3000m
IN2015_C02 [details] Catch [details] 242   EZ Net 5 2437 2015-12-11 01:20 2015-12-11 01:28 -35.2469 130.7150 -35.2536 130.7160 Area: Transect2-3000m
IN2015_C02 [details] Catch [details] 246   Profiling Lagrangian Acoustic Optical System (pLAOS) 2437 2015-12-11 02:30 2015-12-11 03:50 -35.2614 130.7200 -35.2621 130.7200 Area: Transect2-3000m
IN2015_C02 [details] Catch [details] 247   MIDOC Net 1 2437 2015-12-11 04:05 2015-12-11 05:25 -35.2600 130.7220 -35.1865 130.7070 Area: Transect2-3000m
IN2015_C02 [details] Catch [details] 248   MIDOC Net 2 2437 2015-12-11 05:25 2015-12-11 05:45 -35.1865 130.7070 -35.1664 130.7030 Area: Transect2-3000m
IN2015_C02 [details] Catch [details] 249   MIDOC Net 3 2437 2015-12-11 05:45 2015-12-11 05:55 -35.1664 130.7030 -35.1570 130.7010 Area: Transect2-3000m
IN2015_C02 [details] Catch [details] 250   MIDOC Net 4 2437 2015-12-11 05:55 2015-12-11 06:05 -35.1570 130.7010 -35.1474 130.6990 Area: Transect2-200m
IN2015_C02 [details] Catch [details] 251   MIDOC Net 5 2437 2015-12-11 06:05 2015-12-11 06:15 -35.1474 130.6990 -35.1380 130.6970 Area: Transect2-3000m
IN2015_C02 [details] Catch [details] 252   Mid Ocean Open Close - MIDOC. 2437 2015-12-11 06:15 2015-12-11 06:30 -35.1380 130.6970 -35.1239 130.6930 Area: Transect2-3000m
IN2015_C02 [details] Catch [details] 253   Profiling Lagrangian Acoustic Optical System (pLAOS) 2437 2015-12-11 08:19 -35.0628 130.6820 Area: Transect2-3000m
IN2015_C02 [details] Catch [details] 254   MIDOC Net 1 2437 2015-12-11 10:28 2015-12-11 10:38 -35.0637 130.6890 -35.0709 130.6890 Area: Transect2-3000m
IN2015_C02 [details] Catch [details] 255   MIDOC Net 2 2437 2015-12-11 11:38 2015-12-11 11:58 -35.1306 130.6860 -35.1509 130.6860 Area: Transect2-3000m
IN2015_C02 [details] Catch [details] 256   MIDOC Net 3 2437 2015-12-11 11:58 2015-12-11 12:08 -35.1509 130.6860 -35.1608 130.6860 Area: Transect2-3000m
IN2015_C02 [details] Catch [details] 257   MIDOC Net 4 2437 2015-12-11 12:08 2015-12-11 12:18 -35.1608 130.6860 -35.1708 130.6870 Area: Transect2-3000m
IN2015_C02 [details] Catch [details] 258   MIDOC Net 5 2437 2015-12-11 12:18 2015-12-11 12:28 -35.1708 130.6870 -35.1812 130.6880 Area: Transect2-3000m
IN2015_C02 [details] Catch [details] 259   Mid Ocean Open Close - MIDOC. 2437 2015-12-11 12:28 2015-12-11 12:45 -35.1812 130.6880 -35.1981 130.6890 Area: Transect2-3000m
IN2015_C02 [details] CTD Cast / Hydrology [details] 21   Cast 21 Autosal Salinometer,CTD 20 - SN 0552,Conductivity CTD 20 - SN 3868,Fluorometer-CTD20-Chelsea-06-5941-001,Licor - CTD 24 - SN 70111,Oxygen CTD 20-SBE 43-SN 1794,Pressure CTD 20,SCRIPPS Automated Photometric Oxygen System,SEAL AutoAnalyzer 3 HR,SEAL AutoAnalyzer 3 HR,SEAL AutoAnalyzer 3 HR,SEAL AutoAnalyzer 3 HR,SEAL AutoAnalyzer 3 HR,Temperature CTD 20 - SN 4722 2437 2015-12-11 13:42 2015-12-11 14:29 -35.2221 130.6911 -35.2226 130.6915 807
IN2015_C02 [details] Catch [details] 261   VNDUA Bongo net 2437 2015-12-11 14:09 -35.2223 130.6910 Area: Transect2-3000m
IN2015_C02 [details] Catch [details] 262   VNDUA Bongo net 2437 2015-12-11 14:50 -35.2224 130.6920 Area: Transect2-3000m
IN2015_C02 [details] Catch [details] 263   VN335 Bongo net 2437 2015-12-11 15:20 -35.2224 130.6930 Area: Transect2-3000m
IN2015_C02 [details] Catch [details] 264   EZ Net 1 2437 2015-12-11 16:21 2015-12-11 16:41 -35.1950 130.6950 -35.1821 130.6940 Area: Transect2-3000m
IN2015_C02 [details] Catch [details] 269   Surface Net 2437 2015-12-11 16:23 2015-12-11 16:33 -35.1937 130.6950 -35.1873 130.6950 Area: Transect2-3000m
IN2015_C02 [details] Catch [details] 270   Surface Net 2437 2015-12-11 16:34 2015-12-11 16:44 -35.1867 130.6950 -35.1803 130.6940 Area: Transect2-3000m
IN2015_C02 [details] Catch [details] 265   EZ Net 2 2437 2015-12-11 16:41 2015-12-11 16:51 -35.1821 130.6940 -35.1759 130.6940 Area: Transect2-3000m
IN2015_C02 [details] Catch [details] 271   Surface Net 2437 2015-12-11 16:50 2015-12-11 17:00 -35.1766 130.6940 -35.1701 130.6940 Area: Transect2-3000m
IN2015_C02 [details] Catch [details] 266   EZ Net 3 2437 2015-12-11 16:51 2015-12-11 17:01 -35.1759 130.6940 -35.1695 130.6940 Area: Transect2-3000m
IN2015_C02 [details] Catch [details] 267   EZ Net 4 2437 2015-12-11 17:01 2015-12-11 17:11 -35.1695 130.6940 -35.1633 130.6930 Area: Transect2-3000m
IN2015_C02 [details] Catch [details] 268   EZ Net 5 2437 2015-12-11 17:11 2015-12-11 17:14 -35.1633 130.6930 -35.1616 130.6930 Area: Transect2-3000m
IN2015_C02 [details] Catch [details] 272   Profiling Lagrangian Acoustic Optical System (pLAOS) 2437 2015-12-11 18:02 2015-12-11 19:31 -35.1530 130.6930 -35.1532 130.6980 Area: Transect2-3000m
IN2015_C02 [details] Catch [details] 273   Surface Net 2437 2015-12-11 18:53 -35.1533 130.6990 Area: Transect2-3000m
IN2015_C02 [details] Catch [details] 274   CSIRO 4m Beam Trawl 2437 2015-12-11 21:29 2015-12-11 23:12 -35.1652 130.6650 -35.1716 130.6350 Area: T2-3000
IN2015_C02 [details] Catch [details] 430   1mm cod-end mesh sampler 2437 2015-12-11 21:29 2015-12-11 23:12 -35.1652 130.6650 -35.1716 130.6350 Area: T2-3000
IN2015_C02 [details] Catch [details] 277   Surface Net 2437 2015-12-12 03:52 2015-12-12 04:02 -34.8561 130.7170 -34.8573 130.7250 Area: Transect2-2000m
IN2015_C02 [details] Catch [details] 278   Surface Net 2437 2015-12-12 04:06 2015-12-12 04:16 -34.8577 130.7280 -34.8587 130.7360 Area: Transect2-1000m
IN2015_C02 [details] Catch [details] 279   Surface Net 2437 2015-12-12 04:19 2015-12-12 04:39 -34.8591 130.7380 -34.8604 130.7460 Area: Transect2-2000m
IN2015_C02 [details] Catch [details] 283   Surface Net 2437 2015-12-12 09:12 2015-12-12 09:22 -34.5508 130.6690 -34.5553 130.6690 Area: Transect2-1500m
IN2015_C02 [details] Catch [details] 284   Surface Net 2437 2015-12-12 09:25 2015-12-12 09:35 -34.5568 130.6690 -34.5620 130.6690 Area: Transect2-1500m
IN2015_C02 [details] Catch [details] 285   Surface Net 2437 2015-12-12 09:38 2015-12-12 09:48 -34.5635 130.6690 -34.5684 130.6690 Area: Transect2-1500m
IN2015_C02 [details] CTD Cast / Hydrology [details] 22   Cast 22 Autosal Salinometer,CTD 20 - SN 0552,Conductivity CTD 20 - SN 3868,Fluorometer-CTD20-Chelsea-06-5941-001,Licor - CTD 24 - SN 70111,Oxygen CTD 20-SBE 43-SN 1794,Pressure CTD 20,SCRIPPS Automated Photometric Oxygen System,SEAL AutoAnalyzer 3 HR,SEAL AutoAnalyzer 3 HR,SEAL AutoAnalyzer 3 HR,SEAL AutoAnalyzer 3 HR,SEAL AutoAnalyzer 3 HR,Temperature CTD 20 - SN 4722 2437 2015-12-12 11:36 2015-12-12 12:21 -34.5408 130.6666 -34.5382 130.6659 804
IN2015_C02 [details] XBT Cast [details]   Sippican Deep Blue 2548 2015-12-12 13:21 1100.3
IN2015_C02 [details] CTD Cast / Hydrology [details] 23   Cast 23 Autosal Salinometer,CTD 20 - SN 0552,Conductivity CTD 20 - SN 3868,Fluorometer-CTD20-Chelsea-06-5941-001,Licor - CTD 24 - SN 70111,Oxygen CTD 20-SBE 43-SN 1794,Pressure CTD 20,SCRIPPS Automated Photometric Oxygen System,SEAL AutoAnalyzer 3 HR,SEAL AutoAnalyzer 3 HR,SEAL AutoAnalyzer 3 HR,SEAL AutoAnalyzer 3 HR,SEAL AutoAnalyzer 3 HR,Temperature CTD 20 - SN 4722 2437 2015-12-12 17:25 2015-12-12 18:11 -33.7972 130.6709 -33.7993 130.6682 806
IN2015_C02 [details] Catch [details] 291   Surface Net 2437 2015-12-12 17:46 2015-12-12 18:23 -33.7976 130.6700 -33.7997 130.6680 Area: Transect2-1000m
IN2015_C02 [details] XBT Cast [details]   Sippican Deep Blue 2548 2015-12-12 18:21 1100.3
IN2015_C02 [details] Catch [details] 292   CSIRO 4m Beam Trawl 2437 2015-12-12 19:48 -33.7187 130.6660 -33.7426 130.6530 Area: T2-1000
IN2015_C02 [details] Catch [details] 296   1mm cod-end mesh sampler 2437 2015-12-12 19:48 -33.7187 130.6660 -33.7426 130.6530 Area: T2-1000
IN2015_C02 [details] Catch [details] 293   Surface Net 2437 2015-12-12 20:00 2015-12-12 20:10 -33.7330 130.6600 -33.7383 130.6570 Area: Transect2-1000m
IN2015_C02 [details] Catch [details] 294   Surface Net 2437 2015-12-12 20:12 2015-12-12 20:22 -33.7393 130.6570 -33.7446 130.6540 Area: Transect2-1000m
IN2015_C02 [details] Catch [details] 295   Surface Net 2437 2015-12-12 20:25 2015-12-12 20:35 -33.7461 130.6530 -33.7512 130.6500 Area: Transect2-1000m
IN2015_C02 [details] XBT Cast [details]   Sippican Deep Blue 2548 2015-12-13 01:29 1100.3
IN2015_C02 [details] CTD Cast / Hydrology [details] 24   Cast 24 Autosal Salinometer,CTD 20 - SN 0552,Conductivity CTD 20 - SN 3868,Fluorometer-CTD20-Chelsea-06-5941-001,Licor - CTD 24 - SN 70111,Oxygen CTD 20-SBE 43-SN 1794,Pressure CTD 20,SCRIPPS Automated Photometric Oxygen System,SEAL AutoAnalyzer 3 HR,SEAL AutoAnalyzer 3 HR,SEAL AutoAnalyzer 3 HR,SEAL AutoAnalyzer 3 HR,SEAL AutoAnalyzer 3 HR,Temperature CTD 20 - SN 4722 2437 2015-12-13 01:29 2015-12-13 02:19 -33.5550 130.6702 -33.5545 130.6711 801
IN2015_C02 [details] XBT Cast [details]   Sippican Deep Blue 2548 2015-12-13 02:56 1100.3
IN2015_C02 [details] Catch [details] 299   MIDOC Net 1 2437 2015-12-13 03:51 2015-12-13 04:41 -33.4180 130.7710 -33.4184 130.7210 Area: Transect2-400m
IN2015_C02 [details] Catch [details] 300   MIDOC Net 2 2437 2015-12-13 04:41 2015-12-13 04:51 -33.4184 130.7210 -33.4185 130.7110 Area: Transect2-400m
IN2015_C02 [details] Catch [details] 301   MIDOC Net 3 2437 2015-12-13 04:51 2015-12-13 05:01 -33.4185 130.7110 Area: Transect2-400m
IN2015_C02 [details] Catch [details] 302   MIDOC Net 4 2437 2015-12-13 05:01 2015-12-13 05:11 -33.4185 130.7000 -33.4186 130.6890 Area: Transect2-400m
IN2015_C02 [details] Catch [details] 303   MIDOC Net 5 2437 2015-12-13 05:11 2015-12-13 05:21 -33.4186 130.6890 Area: Transect2-400m
IN2015_C02 [details] Catch [details] 304   Mid Ocean Open Close - MIDOC. 2437 2015-12-13 05:21 2015-12-13 05:31 -33.4186 130.6780 Area: Transect2-400m
IN2015_C02 [details] Catch [details] 305   EZ Net 1 2437 2015-12-13 07:08 2015-12-13 07:18 -33.4180 130.6650 -33.4177 130.6720 Area: Transect2-400m
IN2015_C02 [details] Catch [details] 306   EZ Net 2 2437 2015-12-13 07:18 2015-12-13 07:28 -33.4177 130.6720 -33.4174 130.6800 Area: Transect2-400m
IN2015_C02 [details] Catch [details] 307   EZ Net 3 2437 2015-12-13 07:28 2015-12-13 07:38 -33.4174 130.6800 -33.4173 130.6880 Area: Transect2-400m
IN2015_C02 [details] Catch [details] 308   EZ Net 4 2437 2015-12-13 07:38 2015-12-13 07:49 -33.4173 130.6880 Area: Transect2-400m
IN2015_C02 [details] Catch [details] 309   EZ Net 5 2437 2015-12-13 07:50 2015-12-13 07:50 -33.4173 130.6990 Area: Transect2-400m
IN2015_C02 [details] Catch [details] 310   Profiling Lagrangian Acoustic Optical System (pLAOS) 2437 2015-12-13 08:14 -33.4167 130.7030 Area: Transect2-400m
IN2015_C02 [details] Catch [details] 312   MIDOC Net 1 2437 2015-12-13 10:40 2015-12-13 11:30 -33.4187 130.7560 -33.4194 130.7020 Area: Transect2-400m
IN2015_C02 [details] Catch [details] 313   MIDOC Net 2 2437 2015-12-13 11:30 2015-12-13 11:40 -33.4194 130.7020 -33.4190 130.6910 Area: Transect2-400m
IN2015_C02 [details] Catch [details] 314   MIDOC Net 3 2437 2015-12-13 11:40 2015-12-13 11:50 -33.4190 130.6910 -33.4187 130.6790 Area: Transect2-400m
IN2015_C02 [details] Catch [details] 315   MIDOC Net 4 2437 2015-12-13 11:50 2015-12-13 12:00 -33.4187 130.6790 -33.4184 130.6670 Area: Transect2-400m
IN2015_C02 [details] Catch [details] 316   MIDOC Net 5 2437 2015-12-13 12:00 2015-12-13 12:10 -33.4184 130.6670 -33.4181 130.6560 Area: Transect2-400m
IN2015_C02 [details] Catch [details] 317   Mid Ocean Open Close - MIDOC. 2437 2015-12-13 12:10 2015-12-13 12:20 -33.4181 130.6560 -33.4180 130.6460 Area: Transect2-400m
IN2015_C02 [details] CTD Cast / Hydrology [details] 25   Cast 25 Autosal Salinometer,CTD 20 - SN 0552,Conductivity CTD 20 - SN 3868,Fluorometer-CTD20-Chelsea-06-5941-001,Licor - CTD 24 - SN 70111,Oxygen CTD 20-SBE 43-SN 1794,Pressure CTD 20,SCRIPPS Automated Photometric Oxygen System,SEAL AutoAnalyzer 3 HR,SEAL AutoAnalyzer 3 HR,SEAL AutoAnalyzer 3 HR,SEAL AutoAnalyzer 3 HR,SEAL AutoAnalyzer 3 HR,Temperature CTD 20 - SN 4722 2437 2015-12-13 13:22 2015-12-13 13:55 -33.4168 130.6474 -33.4163 130.6475 399
IN2015_C02 [details] Catch [details] 319   VNDUA Bongo net 2437 2015-12-13 14:26 -33.4156 130.6480 Area: Transect2-400m
IN2015_C02 [details] Catch [details] 320   VN335 Bongo net 2437 2015-12-13 14:37 -33.4156 130.6480 Area: Transect2-400m
IN2015_C02 [details] Catch [details] 321   EZ Net 1 2437 2015-12-13 15:08 2015-12-13 15:36 -33.4168 130.6610 -33.4177 130.6850 Area: Transect2-400m
IN2015_C02 [details] Catch [details] 326   Surface Net 2437 2015-12-13 15:16 2015-12-13 15:26 -33.4171 130.6680 -33.4173 130.6760 Area: Transect2-400m
IN2015_C02 [details] Catch [details] 327   Surface Net 2437 2015-12-13 15:30 2015-12-13 15:40 -33.4174 130.6790 -33.4178 130.6880 Area: Transect2-400m
IN2015_C02 [details] Catch [details] 322   EZ Net 2 2437 2015-12-13 15:36 2015-12-13 15:46 -33.4177 130.6850 -33.4182 130.6930 Area: Transect2-400m
IN2015_C02 [details] Catch [details] 328   Surface Net 2437 2015-12-13 15:41 2015-12-13 15:51 -33.4179 130.6890 -33.4184 130.6980 Area: Transect2-400m
IN2015_C02 [details] Catch [details] 323   EZ Net 3 2437 2015-12-13 15:46 2015-12-13 15:59 -33.4182 130.6930 -33.4185 130.7050 Area: Transect2-400m
IN2015_C02 [details] Catch [details] 324   EZ Net 4 2437 2015-12-13 15:59 2015-12-13 16:04 -33.4185 130.7050 -33.4184 130.7090 Area: Transect2-400m
IN2015_C02 [details] Catch [details] 325   EZ Net 5 2437 2015-12-13 16:04 2015-12-13 16:17 -33.4184 130.7090 -33.4185 130.7210 Area: Transect2-400m
IN2015_C02 [details] Catch [details] 329   Profiling Lagrangian Acoustic Optical System (pLAOS) 2437 2015-12-13 16:49 2015-12-13 17:25 -33.4359 130.7280 -33.4365 130.7280 Area: Transect2-400m
IN2015_C02 [details] Catch [details] 330   CSIRO 4m Beam Trawl 2437 2015-12-13 18:23 2015-12-13 18:53 -33.4234 130.7350 -33.4263 130.7200 Area: T2-400
IN2015_C02 [details] Catch [details] 331   1mm cod-end mesh sampler 2437 2015-12-13 18:23 2015-12-13 18:53 -33.4234 130.7350 -33.4263 130.7200 Area: T2-400
IN2015_C02 [details] CTD Cast / Hydrology [details] 26   Cast 26 Autosal Salinometer,CTD 20 - SN 0552,Conductivity CTD 20 - SN 3868,Fluorometer-CTD20-Chelsea-06-5941-001,Licor - CTD 24 - SN 70111,Oxygen CTD 20-SBE 43-SN 1794,Pressure CTD 20,SCRIPPS Automated Photometric Oxygen System,SEAL AutoAnalyzer 3 HR,SEAL AutoAnalyzer 3 HR,SEAL AutoAnalyzer 3 HR,SEAL AutoAnalyzer 3 HR,SEAL AutoAnalyzer 3 HR,Temperature CTD 20 - SN 4722 2437 2015-12-13 19:46 2015-12-13 20:21 -33.4202 130.6707 -33.4226 130.6711 402
IN2015_C02 [details] Catch [details] 335   VNDUA Bongo net 2437 2015-12-13 22:02 -33.4212 130.6740 Area: Transect2-400m
IN2015_C02 [details] Catch [details] 336   VNDUA Bongo net 2437 2015-12-13 22:02 -33.4211 130.6740 Area: Transect2-400m
IN2015_C02 [details] Catch [details] 337   VN335 Bongo net 2437 2015-12-13 22:03 2015-12-13 22:55 -33.4211 130.6740 Area: Transect2-400m
IN2015_C02 [details] Catch [details] 339   Surface Net 2437 2015-12-14 00:04 2015-12-14 00:14 -33.4176 130.6950 -33.4173 130.7050 Area: Transect2-400m
IN2015_C02 [details] Catch [details] 340   Surface Net 2437 2015-12-14 00:16 2015-12-14 00:26 -33.4173 130.7070 -33.4170 130.7160 Area: Transect2-400m
IN2015_C02 [details] Catch [details] 341   Surface Net 2437 2015-12-14 00:39 2015-12-14 00:49 -33.4162 130.7250 -33.4154 130.7320 Area: Transect2-400m
IN2015_C02 [details] Catch [details] 342   EZ Net 1 2437 2015-12-14 02:53 2015-12-14 03:11 -33.5566 130.6910 Area: Transect2-800m
IN2015_C02 [details] Catch [details] 347   Surface Net 2437 2015-12-14 02:55 2015-12-14 03:06 -33.5566 130.6930 Area: Transect2-800m
IN2015_C02 [details] Catch [details] 348   Surface Net 2437 2015-12-14 03:09 2015-12-14 03:19 -33.5566 130.7050 -33.5567 130.7140 Area: Transect2-800m
IN2015_C02 [details] Catch [details] 343   EZ Net 2 2437 2015-12-14 03:11 2015-12-14 03:25 -33.5566 130.7070 Area: Transect2-800m
IN2015_C02 [details] Catch [details] 349   Surface Net 2437 2015-12-14 03:21 2015-12-14 03:32 -33.5567 130.7150 -33.5565 130.7250 Area: Transect2-800m
IN2015_C02 [details] Catch [details] 344   EZ Net 3 2437 2015-12-14 03:25 2015-12-14 03:37 -33.5566 130.7190 -33.5565 130.7300 Area: Transect2-800m
IN2015_C02 [details] Catch [details] 345   EZ Net 4 2437 2015-12-14 03:37 2015-12-14 03:47 -33.5565 130.7300 -33.5564 130.7390 Area: Transect2-800m
IN2015_C02 [details] Catch [details] 346   EZ Net 5 2437 2015-12-14 03:47 2015-12-14 03:58 -33.5564 130.7390 Area: Transect2-800m
IN2015_C02 [details] Catch [details] 350   MIDOC Net 1 2437 2015-12-14 04:25 2015-12-14 05:35 -33.5573 130.7520 -33.5577 130.6690 Area: Transect2-800m
IN2015_C02 [details] Catch [details] 351   MIDOC Net 2 2437 2015-12-14 05:35 2015-12-14 05:55 -33.5577 130.6690 -33.5578 130.6440 Area: Transect2-800m
IN2015_C02 [details] Catch [details] 352   MIDOC Net 3 2437 2015-12-14 05:55 2015-12-14 06:05 -33.5578 130.6440 -33.5579 130.6310 Area: Transect2-800m
IN2015_C02 [details] Catch [details] 353   MIDOC Net 4 2437 2015-12-14 06:05 2015-12-14 06:15 -33.5579 130.6310 -33.5580 130.6190 Area: Transect2-800m
IN2015_C02 [details] Catch [details] 354   MIDOC Net 5 2437 2015-12-14 06:15 2015-12-14 06:25 -33.5580 130.6190 -33.5582 130.6070 Area: Transect2-800m
IN2015_C02 [details] Catch [details] 355   Mid Ocean Open Close - MIDOC. 2437 2015-12-14 06:25 -33.5582 130.6070 Area: Transect2-800m
IN2015_C02 [details] Catch [details] 356   Profiling Lagrangian Acoustic Optical System (pLAOS) 2437 2015-12-14 08:20 2015-12-14 09:34 -33.5554 130.5400 -33.5525 130.5490 Area: Transect2-800m
IN2015_C02 [details] Catch [details] 357   MIDOC Net 1 2437 2015-12-14 10:28 2015-12-14 11:28 -33.5575 130.5570 -33.5557 130.6240 Area: Transect2-800m
IN2015_C02 [details] Catch [details] 358   MIDOC Net 2 2437 2015-12-14 11:28 2015-12-14 11:48 -33.5557 130.6240 -33.5562 130.6480 Area: Transect2-800m
IN2015_C02 [details] Catch [details] 359   MIDOC Net 3 2437 2015-12-14 11:48 2015-12-14 11:58 -33.5562 130.6480 -33.5561 130.6600 Area: Transect2-800m
IN2015_C02 [details] Catch [details] 360   MIDOC Net 4 2437 2015-12-14 11:58 2015-12-14 12:08 -33.5561 130.6600 -33.5556 130.6720 Area: Transect2-800m
IN2015_C02 [details] Catch [details] 361   MIDOC Net 5 2437 2015-12-14 12:08 2015-12-14 12:18 -33.5556 130.6720 -33.5555 130.6840 Area: Transect2-800m
IN2015_C02 [details] Catch [details] 362   Mid Ocean Open Close - MIDOC. 2437 2015-12-14 12:18 2015-12-14 12:28 -33.5555 130.6840 -33.5552 130.6940 Area: Transect2-800m
IN2015_C02 [details] CTD Cast / Hydrology [details] 27   Cast 27 Autosal Salinometer,CTD 20 - SN 0552,Conductivity CTD 20 - SN 3868,Fluorometer-CTD20-Chelsea-06-5941-001,Licor - CTD 24 - SN 70111,Oxygen CTD 20-SBE 43-SN 1794,Pressure CTD 20,SCRIPPS Automated Photometric Oxygen System,SEAL AutoAnalyzer 3 HR,SEAL AutoAnalyzer 3 HR,SEAL AutoAnalyzer 3 HR,SEAL AutoAnalyzer 3 HR,SEAL AutoAnalyzer 3 HR,Temperature CTD 20 - SN 4722 2437 2015-12-14 13:33 2015-12-14 14:21 -33.5650 130.7297 -33.5643 130.7306 778
IN2015_C02 [details] Catch [details] 364   VNDUA Bongo net 2437 2015-12-14 14:32 2015-12-14 14:45 -33.5643 130.7310 -33.5641 130.7320 Area: Transect2-800m
IN2015_C02 [details] Catch [details] 365   VN335 Bongo net 2437 2015-12-14 14:51 2015-12-14 15:04 -33.5639 130.7320 -33.5635 130.7330 Area: Transect2-800m
IN2015_C02 [details] Catch [details] 366   EZ Net 1 2437 2015-12-14 15:36 2015-12-14 15:58 -33.5636 130.7080 -33.5633 130.6900 Area: Transect2-800m
IN2015_C02 [details] Catch [details] 371   Surface Net 2437 2015-12-14 15:36 2015-12-14 15:46 -33.5636 130.7080 -33.5633 130.7000 Area: Transect2-800m
IN2015_C02 [details] Catch [details] 372   Surface Net 2437 2015-12-14 15:50 2015-12-14 16:00 -33.5633 130.6960 -33.5634 130.6880 Area: Transect2-800m
IN2015_C02 [details] Catch [details] 367   EZ Net 2 2437 2015-12-14 15:58 2015-12-14 16:10 -33.5633 130.6900 -33.5634 130.6790 Area: Transect2-800m
IN2015_C02 [details] Catch [details] 373   Surface Net 2437 2015-12-14 16:03 2015-12-14 16:13 -33.5634 130.6850 Area: Transect2-800m
IN2015_C02 [details] Catch [details] 368   EZ Net 3 2437 2015-12-14 16:10 2015-12-14 16:21 -33.5634 130.6790 -33.5635 130.6700 Area: Transect2-800m
IN2015_C02 [details] Catch [details] 369   EZ Net 4 2437 2015-12-14 16:21 2015-12-14 16:31 -33.5635 130.6700 Area: Transect2-800m
IN2015_C02 [details] Catch [details] 370   EZ Net 5 2437 2015-12-14 16:31 2015-12-14 16:41 -33.5635 130.6620 -33.5636 130.6530 Area: Transect2-800m
IN2015_C02 [details] Catch [details] 374   Profiling Lagrangian Acoustic Optical System (pLAOS) 2437 2015-12-14 17:15 2015-12-14 18:24 -33.5555 130.6700 -33.5513 130.6770 Area: Transect2-800m
IN2015_C02 [details] CTD Cast / Hydrology [details] 28   Cast 28 Autosal Salinometer,CTD 20 - SN 0552,Conductivity CTD 20 - SN 3868,Fluorometer-CTD20-Chelsea-06-5941-001,Licor - CTD 24 - SN 70111,Oxygen CTD 20-SBE 43-SN 1794,Pressure CTD 20,SCRIPPS Automated Photometric Oxygen System,SEAL AutoAnalyzer 3 HR,SEAL AutoAnalyzer 3 HR,SEAL AutoAnalyzer 3 HR,SEAL AutoAnalyzer 3 HR,SEAL AutoAnalyzer 3 HR,Temperature CTD 20 - SN 4722 2437 2015-12-14 19:18 2015-12-14 20:07 -33.5512 130.6797 -33.5511 130.6802 788
IN2015_C02 [details] Catch [details] 378   VNDUA Bongo net 2437 2015-12-14 21:45 2015-12-14 22:10 -33.5458 130.6870 -33.5456 130.6870 Area: Transect2-800m
IN2015_C02 [details] Catch [details] 379   VNDUA Bongo net 2437 2015-12-14 22:10 -33.5456 130.6870 Area: Transect2-800m
IN2015_C02 [details] Catch [details] 380   VN335 Bongo net 2437 2015-12-14 22:30 -33.5455 130.6870 Area: Transect2-800m
IN2015_C02 [details] Catch [details] 382   CSIRO 4m Beam Trawl 2437 2015-12-15 02:19 2015-12-15 03:04 -33.5161 130.2650 -33.5376 130.2590 Area: T1-1000
IN2015_C02 [details] Catch [details] 386   1mm cod-end mesh sampler 2437 2015-12-15 02:19 2015-12-15 03:04 -33.5161 130.2650 -33.5376 130.2590 Area: T1-1000
IN2015_C02 [details] Catch [details] 383   Surface Net 2437 2015-12-15 02:32 2015-12-15 02:47 -33.5325 130.2610 -33.5405 130.2590 Area: Transect1-1000m
IN2015_C02 [details] Catch [details] 384   Surface Net 2437 2015-12-15 02:50 2015-12-15 03:00 -33.5422 130.2590 -33.5476 130.2570 Area: Transect1-1000m
IN2015_C02 [details] Catch [details] 385   Surface Net 2437 2015-12-15 03:02 2015-12-15 03:12 -33.5487 130.2570 -33.5552 130.2550 Area: Transect1-1000m
IN2015_C02 [details] CTD Cast [details] 29   Cast 29 CTD 20 - SN 0552,Conductivity CTD 20 - SN 3868,Fluorometer-CTD20-Chelsea-06-5941-001,Licor - CTD 24 - SN 70111,Oxygen CTD 20-SBE 43-SN 1794,Pressure CTD 20,Temperature CTD 20 - SN 4722 2437 2015-12-15 04:34 2015-12-15 04:48 -33.5285 130.2668 205
IN2015_C02 [details] Catch [details] 390   Surface Net 2437 2015-12-15 08:32 2015-12-15 08:42 -33.3839 130.2730 -33.3846 130.2780 Area: Transect1-400m
IN2015_C02 [details] CTD Cast / Hydrology [details] 30   Cast 30 Autosal Salinometer,CTD 20 - SN 0552,Conductivity CTD 20 - SN 3868,Fluorometer-CTD20-Chelsea-06-5941-001,Licor - CTD 24 - SN 70111,Oxygen CTD 20-SBE 43-SN 1794,Pressure CTD 20,SCRIPPS Automated Photometric Oxygen System,SEAL AutoAnalyzer 3 HR,SEAL AutoAnalyzer 3 HR,SEAL AutoAnalyzer 3 HR,SEAL AutoAnalyzer 3 HR,SEAL AutoAnalyzer 3 HR,Temperature CTD 20 - SN 4722 2437 2015-12-15 09:09 2015-12-15 09:42 -33.3856 130.2874 -33.3852 130.2891 402
IN2015_C02 [details] Catch [details] 391   Surface Net 2437 2015-12-15 10:39 2015-12-15 10:49 -33.3820 130.2890 -33.3759 130.2920 Area: Transect1-400m
IN2015_C02 [details] Catch [details] 392   Surface Net 2437 2015-12-15 10:52 2015-12-15 11:02 -33.3741 130.2930 -33.3685 130.2960 Area: Transect1-400m
IN2015_C02 [details] Catch [details] 398   CSIRO 4m Beam Trawl 2437 2015-12-15 16:55 2015-12-15 17:16 -33.3660 130.7420 -33.3672 130.7290 Area: T2-200
IN2015_C02 [details] Catch [details] 399   Surface Net 2437 2015-12-15 17:49 2015-12-15 17:59 -33.3672 130.7040 -33.3671 130.6960 Area: Transect2-200m
IN2015_C02 [details] Catch [details] 400   Surface Net 2437 2015-12-15 18:01 2015-12-15 18:11 -33.3670 130.6950 -33.3668 130.6870 Area: Transect2-200m
IN2015_C02 [details] Catch [details] 401   Surface Net 2437 2015-12-15 18:14 2015-12-15 18:24 -33.3668 130.6850 -33.3667 130.6770 Area: Transect2-200m
IN2015_C02 [details] CTD Cast / Hydrology [details] 31   Cast 31 Autosal Salinometer,CTD 20 - SN 0552,Conductivity CTD 20 - SN 3868,Fluorometer-CTD20-Chelsea-06-5941-001,Licor - CTD 24 - SN 70111,Oxygen CTD 20-SBE 43-SN 1794,Pressure CTD 20,SCRIPPS Automated Photometric Oxygen System,SEAL AutoAnalyzer 3 HR,SEAL AutoAnalyzer 3 HR,SEAL AutoAnalyzer 3 HR,SEAL AutoAnalyzer 3 HR,SEAL AutoAnalyzer 3 HR,Temperature CTD 20 - SN 4722 2437 2015-12-15 20:28 2015-12-15 20:50 -33.0547 130.6550 -33.0551 130.6518 89
IN2015_C02 [details] Catch [details] 405   VNDUA Bongo net 2437 2015-12-15 21:55 2015-12-15 22:05 -33.0537 130.6500 -33.0533 130.6510 Area: Transect2-100m
IN2015_C02 [details] Catch [details] 406   VNDUA Bongo net 2437 2015-12-15 22:11 2015-12-15 22:17 -33.0528 130.6510 -33.0525 130.6510 Area: Transect2-100m
IN2015_C02 [details] Catch [details] 407   VN335 Bongo net 2437 2015-12-15 22:22 2015-12-15 22:27 -33.0523 130.6510 -33.0520 130.6510 Area: Transect2-100m
IN2015_C02 [details] Catch [details] 409   EZ Net 1 2437 2015-12-15 23:34 2015-12-15 23:44 -33.0531 130.6680 Area: Transect2-100m
IN2015_C02 [details] Catch [details] 410   EZ Net 2 2437 2015-12-15 23:44 2015-12-15 23:51 -33.0531 130.6770 -33.0530 130.6820 Area: Transect2-100m
IN2015_C02 [details] Catch [details] 411   EZ Net 3 2437 2015-12-15 23:51 2015-12-16 00:02 -33.0530 130.6820 -33.0529 130.6920 Area: Transect2-100m
IN2015_C02 [details] Catch [details] 412   EZ Net 4 2437 2015-12-16 00:02 2015-12-16 00:14 -33.0529 130.6920 -33.0528 130.7020 Area: Transect2-100m
IN2015_C02 [details] Catch [details] 413   EZ Net 5 2437 2015-12-16 00:14 2015-12-16 00:20 -33.0528 130.7020 Area: Transect2-100m
IN2015_C02 [details] Catch [details] 414   Surface Net 2437 2015-12-16 00:41 2015-12-16 00:52 -33.0516 130.7150 -33.0519 130.7070 Area: Transect2-100m
IN2015_C02 [details] Catch [details] 415   Surface Net 2437 2015-12-16 00:55 2015-12-16 01:05 -33.0520 130.7040 -33.0524 130.6960 Area: Transect2-100m
IN2015_C02 [details] Catch [details] 416   Surface Net 2437 2015-12-16 01:09 2015-12-16 01:19 -33.0524 130.6930 -33.0525 130.6840 Area: Transect2-100m
IN2015_C02 [details] CTD Cast / Hydrology [details] 32   Cast 32 Autosal Salinometer,CTD 20 - SN 0552,Conductivity CTD 20 - SN 3868,Fluorometer-CTD20-Chelsea-06-5941-001,Licor - CTD 24 - SN 70111,Oxygen CTD 20-SBE 43-SN 1794,Pressure CTD 20,SCRIPPS Automated Photometric Oxygen System,SEAL AutoAnalyzer 3 HR,SEAL AutoAnalyzer 3 HR,SEAL AutoAnalyzer 3 HR,SEAL AutoAnalyzer 3 HR,SEAL AutoAnalyzer 3 HR,Temperature CTD 20 - SN 4722 2437 2015-12-16 02:50 2015-12-16 03:11 -33.2282 130.6613 -33.2279 130.6619 104
IN2015_C02 [details] Catch [details] 419   MIDOC Net 1 2437 2015-12-16 10:54 -33.3378 130.2500 Area: Transect1-200m
IN2015_C02 [details] Catch [details] 420   MIDOC Net 2 2437 2015-12-16 10:56 -33.3377 130.2520 Area: Transect1-200m
IN2015_C02 [details] Catch [details] 421   MIDOC Net 3 2437 2015-12-16 10:56 -33.3377 130.2530 Area: Transect1-200m
IN2015_C02 [details] Catch [details] 422   MIDOC Net 4 2437 2015-12-16 10:57 -33.3377 130.2530 Area: Transect1-200m
IN2015_C02 [details] Catch [details] 423   MIDOC Net 5 2437 2015-12-16 10:57 -33.3377 130.2540 Area: Transect1-200m
IN2015_C02 [details] Catch [details] 424   Mid Ocean Open Close - MIDOC. 2437 2015-12-16 10:58 -33.3378 130.2540 Area: Transect1-200m
IN2015_C02 [details] CTD Cast / Hydrology [details] 33   Cast 33 Autosal Salinometer,CTD 20 - SN 0552,Conductivity CTD 20 - SN 3868,Fluorometer-CTD20-Chelsea-06-5941-001,Licor - CTD 24 - SN 70111,Oxygen CTD 20-SBE 43-SN 1794,Pressure CTD 20,SCRIPPS Automated Photometric Oxygen System,SEAL AutoAnalyzer 3 HR,SEAL AutoAnalyzer 3 HR,SEAL AutoAnalyzer 3 HR,SEAL AutoAnalyzer 3 HR,SEAL AutoAnalyzer 3 HR,Temperature CTD 20 - SN 4722 2437 2015-12-16 14:08 2015-12-16 14:33 -33.3520 130.3849 -33.3513 130.3846 199
IN2015_C02 [details] Catch [details] 435   CSIRO 4m Beam Trawl 2437 2015-12-17 00:57 2015-12-17 01:48 -34.0723 130.2600 -34.0931 130.2390 Area: T1-1500
IN2015_C02 [details] Catch [details] 436   1mm cod-end mesh sampler 2437 2015-12-17 00:57 2015-12-17 01:48 -34.0723 130.2600 -34.0931 130.2390 Area: T1-1500
IN2015_C02 [details] Catch [details] 437   Surface Net 2437 2015-12-17 01:12 2015-12-17 01:22 -34.0915 130.2410 -34.0959 130.2360 Area: Transect1-1500m
IN2015_C02 [details] Catch [details] 438   Surface Net 2437 2015-12-17 01:25 2015-12-17 01:35 -34.0974 130.2350 -34.1022 130.2300 Area: Transect1-1500m
IN2015_C02 [details] Catch [details] 439   Surface Net 2437 2015-12-17 01:38 2015-12-17 01:48 -34.1036 130.2290 -34.1091 130.2230 Area: Transect1-1500m
IN2015_C02 [details] Catch [details] 440   Surface Net 2437 2015-12-17 01:50 2015-12-17 02:01 -34.1101 130.2220 -34.1138 130.2180 Area: Transect1-1500m
IN2015_C02 [details] CTD Cast [details] 34   Cast 34 CTD 20 - SN 0552,Conductivity CTD 20 - SN 3868,Fluorometer-CTD20-Chelsea-06-5941-001,Licor - CTD 24 - SN 70111,Oxygen CTD 20-SBE 43-SN 1794,Pressure CTD 20,Temperature CTD 20 - SN 4722 2437 2015-12-17 03:36 2015-12-17 03:52 -34.0771 130.2478 -34.0766 130.2471 204
IN2015_C02 [details] XBT Cast [details]   Sippican Deep Blue 2548 2015-12-17 08:01 1100.3
IN2015_C02 [details] XBT Cast [details]   Sippican Deep Blue 2548 2015-12-17 09:42 1100.3
IN2015_C02 [details] Catch [details] 451   Surface Net 2437 2015-12-17 16:05 2015-12-17 16:15 -34.6197 130.2800 -34.6251 130.2800 Area: Transect1-2000m
IN2015_C02 [details] Catch [details] 452   Surface Net 2437 2015-12-17 16:17 2015-12-17 16:27 -34.6263 130.2800 -34.6320 130.2800 Area: Transect1-2000m
IN2015_C02 [details] Catch [details] 453   Surface Net 2437 2015-12-17 16:30 2015-12-17 16:40 -34.6337 130.2800 -34.6395 130.2800 Area: Transect1-2000m
IN2015_C02 [details] Catch [details] 449   CSIRO 4m Beam Trawl 2437 2015-12-17 16:52 2015-12-17 17:51 -34.6250 130.2800 -34.6570 130.2800 Area: T1-2000
IN2015_C02 [details] Catch [details] 450   1mm cod-end mesh sampler 2437 2015-12-17 16:52 2015-12-17 17:51 -34.6250 130.2800 -34.6570 130.2800 Area: T1-2000
IN2015_C02 [details] XBT Cast [details]   Sippican Deep Blue 2548 2015-12-17 17:36 1060
IN2015_C02 [details] XBT Cast [details]   Sippican Deep Blue 2548 2015-12-17 18:55 1100.3
IN2015_C02 [details] Catch [details] 454   Profiling Lagrangian Acoustic Optical System (pLAOS) 2437 2015-12-17 20:08 2015-12-17 22:21 -34.7465 130.2360 -34.7429 130.2300 Area: Transect1-2000m
IN2015_C02 [details] Catch [details] 455   Profiling Lagrangian Acoustic Optical System (pLAOS) 2437 2015-12-17 22:31 2015-12-17 01:09 -34.7428 130.2290 -34.0902 130.2420 Area: Transect1-2000m
IN2015_C02 [details] CTD Cast / Hydrology [details] 35   Cast 35 Autosal Salinometer,CTD 20 - SN 0552,Conductivity CTD 20 - SN 3868,Fluorometer-CTD20-Chelsea-06-5941-001,Licor - CTD 24 - SN 70111,Oxygen CTD 20-SBE 43-SN 1794,Pressure CTD 20,SCRIPPS Automated Photometric Oxygen System,SEAL AutoAnalyzer 3 HR,SEAL AutoAnalyzer 3 HR,SEAL AutoAnalyzer 3 HR,SEAL AutoAnalyzer 3 HR,SEAL AutoAnalyzer 3 HR,Temperature CTD 20 - SN 4722 2437 2015-12-18 01:29 2015-12-18 01:54 -34.7437 130.2172 -34.7425 130.2156 204
IN2015_C02 [details] Catch [details] 137   CSIRO 4m Beam Trawl 2437 -35.5582 134.0830 -35.5842 134.0830 Area: T5-2000
IN2015_C02 [details] Catch [details] 141   CSIRO 4m Beam Trawl 2437 -35.8183 134.1090 -35.7906 134.1070 Area: T5-3000
IN2015_C02 [details] Catch [details] 146   Integrated Coring Platform (ICP) 2437 -35.8196 134.0920 Area: T5-3000
IN2015_C02 [details] Catch [details] 148   Integrated Coring Platform (ICP) 2437 -35.7947 132.6790 Area: T5-3000
IN2015_C02 [details] Catch [details] 151   CSIRO 4m Beam Trawl 2437 -35.7975 132.6930 -35.7777 132.6670 Area: T4-3000
IN2015_C02 [details] Catch [details] 167   CSIRO 4m Beam Trawl 2437 -34.8227 132.6920 -34.8006 132.6930 Area: T4-1000
IN2015_C02 [details] Catch [details] 174   CSIRO 4m Beam Trawl 2437 -34.2536 132.6230 -34.2430 132.6210 Area: T4-400
IN2015_C02 [details] Catch [details] 186   CSIRO 4m Beam Trawl 2437 -33.4881 131.0740 -33.4924 131.0620 Area: T3-400
IN2015_C02 [details] Catch [details] 191   CSIRO 4m Beam Trawl 2437 -33.4170 131.0460 -33.4191 131.0350 Area: T3-200
IN2015_C02 [details] Catch [details] 207   CSIRO 4m Beam Trawl 2437 -35.0352 131.0770 -35.0673 131.0780 Area: T3-2000
IN2015_C02 [details] Catch [details] 211   Integrated Coring Platform (ICP) 2437 -35.0454 131.0670 Area: T3-2000
IN2015_C02 [details] Catch [details] 213   Integrated Coring Platform (ICP) 2437 -35.2397 131.0740 Area: T3-3000
IN2015_C02 [details] Catch [details] 224   Integrated Coring Platform (ICP) 2437 -35.1656 130.6690 Area: T2-3000
IN2015_C02 [details] Catch [details] 226   Integrated Coring Platform (ICP) 2437 -34.9890 130.2790 Area: T1-3000
IN2015_C02 [details] Catch [details] 276   CSIRO 4m Beam Trawl 2437 -34.8532 130.6970 -34.8580 130.7250 Area: T2-2000
IN2015_C02 [details] Catch [details] 280   1mm cod-end mesh sampler 2437 -34.8532 130.6970 -34.8580 130.7250 Area: T2-2000
IN2015_C02 [details] Catch [details] 281   CSIRO 4m Beam Trawl 2437 -34.5304 130.6690 -34.5020 130.6640 Area: T2-1500
IN2015_C02 [details] Catch [details] 282   1mm cod-end mesh sampler 2437 -34.5304 130.6690 -34.5020 130.6640 Area: T2-1500
IN2015_C02 [details] Catch [details] 297   Integrated Coring Platform (ICP) 2437 -33.7140 130.6680 Area: T2-1000
IN2015_C02 [details] Catch [details] 311   Smith-McIntyre Grab 0.1cu.m. 2437 -33.4180 130.7590 Area: T2-400
IN2015_C02 [details] Catch [details] 389   CSIRO 4m Beam Trawl 2437 -33.3811 130.2560 -33.3833 130.2510 Area: T1-400
IN2015_C02 [details] Catch [details] 394   Smith-McIntyre Grab 0.1cu.m. 2437 -33.3851 130.2890 Area: T1-400
IN2015_C02 [details] Catch [details] 395   CSIRO 4m Beam Trawl 2437 -33.3366 130.2570 -33.3367 130.2710 Area: T1-200
IN2015_C02 [details] Catch [details] 396   1mm cod-end mesh sampler 2437 -33.3366 130.2570 -33.3367 130.2710 Area: T1-200
IN2015_C02 [details] Catch [details] 397   Smith-McIntyre Grab 0.1cu.m. 2437 -33.3357 130.2790 Area: T1-200
IN2015_C02 [details] Catch [details] 418   Integrated Coring Platform (ICP) 2437 -33.5273 130.2660 Area: T1-1000
IN2015_C02 [details] Catch [details] 428   Smith-McIntyre Grab 0.1cu.m. 2437 -33.3530 130.3850 Area: T1-200
IN2015_C02 [details] Catch [details] 429   Smith-McIntyre Grab 0.1cu.m. 2437 -33.3527 130.3850 Area: T1-200
IN2015_C02 [details] Catch [details] 431   Integrated Coring Platform (ICP) 2437 -33.5280 130.2660 Area: T1-1000
IN2015_C02 [details] Catch [details] 432   Integrated Coring Platform (ICP) 2437 -33.5282 130.2660 Area: T1-1000
IN2015_C02 [details] Catch [details] 443   Integrated Coring Platform (ICP) 2437 -34.0770 130.2470 Area: T1-1500
IN2015_C02 [details] Catch [details] 446   Integrated Coring Platform (ICP) 2437 -34.6176 130.2660 Area: T1-2000
IN2015_C02 [details] Catch [details] 447   Integrated Coring Platform (ICP) 2437 -34.6165 130.2650 Area: T1-2000
IN2015_C02 [details] Catch [details] 134   CSIRO 4m Beam Trawl 2437 -35.3445 134.0450 -35.3596 134.0580 Area: T5-1500

Save this list as

NCMI Information and Data Centre  »  Applications  »  Data Trawler